<?xml version="1.0" encoding="UTF-8" standalone="no" ?>
<gpx xmlns="http://www.topografix.com/GPX/1/1" xmlns:xsi="http://www.w3.org/2001/XMLSchema-instance" xsi:schemaLocation="http://www.topografix.com/GPX/1/1 http://www.topografix.com/GPX/1/1/gpx.xsd" version="1.1" creator="VisuGPX - https://www.visugpx.com">
  <metadata>
    <name>Circuit 65 km Les Herbiers_Les Herbiers édité par cth85.com</name>
    <desc><![CDATA[Circuit de 65 km passant par: Les Herbiers, La Gaubretière, Chambretaud, Les Epesses, St Michel Mont Mercure, La Flocelière, D9A direction Pouzauges, à gauche D2752, D43 direction Chavagnes les Redoux, à 3 km à droite Le Boupère, direction St Mars la bonnlière, à gauche St Paul en Pareds, Les Herbiers. ]]></desc>
  </metadata>
  <trk>
    <name><![CDATA[65_11_11_11 on GPSies.com]]></name>
    <trkseg>
      <trkpt lat="46.86421" lon="-1.00954">
        <ele>117</ele>
        <time>2011-11-10T19:30:05Z</time>
      </trkpt>
      <trkpt lat="46.86415" lon="-1.00945">
        <ele>117</ele>
        <time>2011-11-10T19:30:06Z</time>
      </trkpt>
      <trkpt lat="46.86439" lon="-1.00914">
        <ele>117</ele>
        <time>2011-11-10T19:30:11Z</time>
      </trkpt>
      <trkpt lat="46.86619" lon="-1.00734">
        <ele>111</ele>
        <time>2011-11-10T19:30:46Z</time>
      </trkpt>
      <trkpt lat="46.86662" lon="-1.00698">
        <ele>112</ele>
        <time>2011-11-10T19:30:54Z</time>
      </trkpt>
      <trkpt lat="46.86703" lon="-1.00673">
        <ele>112</ele>
        <time>2011-11-10T19:31:01Z</time>
      </trkpt>
      <trkpt lat="46.86836" lon="-1.00631">
        <ele>113</ele>
        <time>2011-11-10T19:31:23Z</time>
      </trkpt>
      <trkpt lat="46.86854" lon="-1.00631">
        <ele>113</ele>
        <time>2011-11-10T19:31:26Z</time>
      </trkpt>
      <trkpt lat="46.86946" lon="-1.00667">
        <ele>106</ele>
        <time>2011-11-10T19:31:41Z</time>
      </trkpt>
      <trkpt lat="46.86991" lon="-1.00888">
        <ele>103</ele>
        <time>2011-11-10T19:32:06Z</time>
      </trkpt>
      <trkpt lat="46.87098" lon="-1.01244">
        <ele>105</ele>
        <time>2011-11-10T19:32:49Z</time>
      </trkpt>
      <trkpt lat="46.87117" lon="-1.0132">
        <ele>108</ele>
        <time>2011-11-10T19:32:58Z</time>
      </trkpt>
      <trkpt lat="46.87211" lon="-1.013">
        <ele>110</ele>
        <time>2011-11-10T19:33:13Z</time>
      </trkpt>
      <trkpt lat="46.87281" lon="-1.01271">
        <ele>111</ele>
        <time>2011-11-10T19:33:25Z</time>
      </trkpt>
      <trkpt lat="46.87296" lon="-1.01278">
        <ele>117</ele>
        <time>2011-11-10T19:33:27Z</time>
      </trkpt>
      <trkpt lat="46.87305" lon="-1.01289">
        <ele>117</ele>
        <time>2011-11-10T19:33:29Z</time>
      </trkpt>
      <trkpt lat="46.87345" lon="-1.01482">
        <ele>118</ele>
        <time>2011-11-10T19:33:51Z</time>
      </trkpt>
      <trkpt lat="46.87663" lon="-1.01329">
        <ele>126</ele>
        <time>2011-11-10T19:34:45Z</time>
      </trkpt>
      <trkpt lat="46.87663" lon="-1.01329">
        <ele>126</ele>
        <time>2011-11-10T19:34:45Z</time>
      </trkpt>
      <trkpt lat="46.87716" lon="-1.01307">
        <ele>127</ele>
        <time>2011-11-10T19:34:53Z</time>
      </trkpt>
      <trkpt lat="46.87752" lon="-1.01285">
        <ele>128</ele>
        <time>2011-11-10T19:35:00Z</time>
      </trkpt>
      <trkpt lat="46.87756" lon="-1.0138">
        <ele>126</ele>
        <time>2011-11-10T19:35:10Z</time>
      </trkpt>
      <trkpt lat="46.87756" lon="-1.0138">
        <ele>126</ele>
        <time>2011-11-10T19:35:10Z</time>
      </trkpt>
      <trkpt lat="46.87768" lon="-1.01526">
        <ele>123</ele>
        <time>2011-11-10T19:35:26Z</time>
      </trkpt>
      <trkpt lat="46.87774" lon="-1.01887">
        <ele>122</ele>
        <time>2011-11-10T19:36:06Z</time>
      </trkpt>
      <trkpt lat="46.8776" lon="-1.01975">
        <ele>121</ele>
        <time>2011-11-10T19:36:16Z</time>
      </trkpt>
      <trkpt lat="46.87696" lon="-1.02168">
        <ele>117</ele>
        <time>2011-11-10T19:36:39Z</time>
      </trkpt>
      <trkpt lat="46.8787" lon="-1.02296">
        <ele>121</ele>
        <time>2011-11-10T19:37:10Z</time>
      </trkpt>
      <trkpt lat="46.87986" lon="-1.0239">
        <ele>120</ele>
        <time>2011-11-10T19:37:32Z</time>
      </trkpt>
      <trkpt lat="46.88147" lon="-1.02505">
        <ele>123</ele>
        <time>2011-11-10T19:38:00Z</time>
      </trkpt>
      <trkpt lat="46.88177" lon="-1.02522">
        <ele>123</ele>
        <time>2011-11-10T19:38:05Z</time>
      </trkpt>
      <trkpt lat="46.88186" lon="-1.02515">
        <ele>123</ele>
        <time>2011-11-10T19:38:07Z</time>
      </trkpt>
      <trkpt lat="46.88192" lon="-1.02516">
        <ele>123</ele>
        <time>2011-11-10T19:38:08Z</time>
      </trkpt>
      <trkpt lat="46.88199" lon="-1.02527">
        <ele>123</ele>
        <time>2011-11-10T19:38:10Z</time>
      </trkpt>
      <trkpt lat="46.88199" lon="-1.02539">
        <ele>123</ele>
        <time>2011-11-10T19:38:11Z</time>
      </trkpt>
      <trkpt lat="46.88214" lon="-1.02549">
        <ele>124</ele>
        <time>2011-11-10T19:38:14Z</time>
      </trkpt>
      <trkpt lat="46.88217" lon="-1.02559">
        <ele>124</ele>
        <time>2011-11-10T19:38:15Z</time>
      </trkpt>
      <trkpt lat="46.88689" lon="-1.02912">
        <ele>129</ele>
        <time>2011-11-10T19:39:40Z</time>
      </trkpt>
      <trkpt lat="46.88742" lon="-1.02962">
        <ele>126</ele>
        <time>2011-11-10T19:39:50Z</time>
      </trkpt>
      <trkpt lat="46.88742" lon="-1.02962">
        <ele>126</ele>
        <time>2011-11-10T19:39:50Z</time>
      </trkpt>
      <trkpt lat="46.88773" lon="-1.03002">
        <ele>126</ele>
        <time>2011-11-10T19:39:56Z</time>
      </trkpt>
      <trkpt lat="46.88807" lon="-1.03057">
        <ele>127</ele>
        <time>2011-11-10T19:40:04Z</time>
      </trkpt>
      <trkpt lat="46.88833" lon="-1.03122">
        <ele>127</ele>
        <time>2011-11-10T19:40:13Z</time>
      </trkpt>
      <trkpt lat="46.88845" lon="-1.03172">
        <ele>123</ele>
        <time>2011-11-10T19:40:18Z</time>
      </trkpt>
      <trkpt lat="46.88852" lon="-1.03241">
        <ele>123</ele>
        <time>2011-11-10T19:40:26Z</time>
      </trkpt>
      <trkpt lat="46.88842" lon="-1.03401">
        <ele>119</ele>
        <time>2011-11-10T19:40:44Z</time>
      </trkpt>
      <trkpt lat="46.88847" lon="-1.03475">
        <ele>116</ele>
        <time>2011-11-10T19:40:52Z</time>
      </trkpt>
      <trkpt lat="46.88878" lon="-1.03558">
        <ele>115</ele>
        <time>2011-11-10T19:41:02Z</time>
      </trkpt>
      <trkpt lat="46.88894" lon="-1.03574">
        <ele>115</ele>
        <time>2011-11-10T19:41:05Z</time>
      </trkpt>
      <trkpt lat="46.88897" lon="-1.03591">
        <ele>115</ele>
        <time>2011-11-10T19:41:07Z</time>
      </trkpt>
      <trkpt lat="46.88939" lon="-1.03642">
        <ele>115</ele>
        <time>2011-11-10T19:41:16Z</time>
      </trkpt>
      <trkpt lat="46.8906" lon="-1.03742">
        <ele>115</ele>
        <time>2011-11-10T19:41:38Z</time>
      </trkpt>
      <trkpt lat="46.89138" lon="-1.03791">
        <ele>117</ele>
        <time>2011-11-10T19:41:52Z</time>
      </trkpt>
      <trkpt lat="46.89939" lon="-1.04219">
        <ele>123</ele>
        <time>2011-11-10T19:44:08Z</time>
      </trkpt>
      <trkpt lat="46.89939" lon="-1.04219">
        <ele>123</ele>
        <time>2011-11-10T19:44:08Z</time>
      </trkpt>
      <trkpt lat="46.90116" lon="-1.04303">
        <ele>118</ele>
        <time>2011-11-10T19:44:38Z</time>
      </trkpt>
      <trkpt lat="46.90161" lon="-1.04308">
        <ele>118</ele>
        <time>2011-11-10T19:44:45Z</time>
      </trkpt>
      <trkpt lat="46.90172" lon="-1.04299">
        <ele>118</ele>
        <time>2011-11-10T19:44:47Z</time>
      </trkpt>
      <trkpt lat="46.90184" lon="-1.04301">
        <ele>118</ele>
        <time>2011-11-10T19:44:49Z</time>
      </trkpt>
      <trkpt lat="46.90246" lon="-1.04349">
        <ele>122</ele>
        <time>2011-11-10T19:45:01Z</time>
      </trkpt>
      <trkpt lat="46.9033" lon="-1.04389">
        <ele>122</ele>
        <time>2011-11-10T19:45:15Z</time>
      </trkpt>
      <trkpt lat="46.90421" lon="-1.04425">
        <ele>124</ele>
        <time>2011-11-10T19:45:30Z</time>
      </trkpt>
      <trkpt lat="46.90493" lon="-1.04446">
        <ele>126</ele>
        <time>2011-11-10T19:45:42Z</time>
      </trkpt>
      <trkpt lat="46.90619" lon="-1.04455">
        <ele>125</ele>
        <time>2011-11-10T19:46:02Z</time>
      </trkpt>
      <trkpt lat="46.90914" lon="-1.04434">
        <ele>114</ele>
        <time>2011-11-10T19:46:49Z</time>
      </trkpt>
      <trkpt lat="46.90985" lon="-1.04442">
        <ele>118</ele>
        <time>2011-11-10T19:47:00Z</time>
      </trkpt>
      <trkpt lat="46.91059" lon="-1.04461">
        <ele>123</ele>
        <time>2011-11-10T19:47:12Z</time>
      </trkpt>
      <trkpt lat="46.91059" lon="-1.04461">
        <ele>123</ele>
        <time>2011-11-10T19:47:12Z</time>
      </trkpt>
      <trkpt lat="46.91128" lon="-1.04487">
        <ele>125</ele>
        <time>2011-11-10T19:47:24Z</time>
      </trkpt>
      <trkpt lat="46.91569" lon="-1.04703">
        <ele>135</ele>
        <time>2011-11-10T19:48:38Z</time>
      </trkpt>
      <trkpt lat="46.91836" lon="-1.04851">
        <ele>150</ele>
        <time>2011-11-10T19:49:24Z</time>
      </trkpt>
      <trkpt lat="46.93096" lon="-1.05469">
        <ele>183</ele>
        <time>2011-11-10T19:52:57Z</time>
      </trkpt>
      <trkpt lat="46.93138" lon="-1.05479">
        <ele>186</ele>
        <time>2011-11-10T19:53:04Z</time>
      </trkpt>
      <trkpt lat="46.93173" lon="-1.05472">
        <ele>186</ele>
        <time>2011-11-10T19:53:09Z</time>
      </trkpt>
      <trkpt lat="46.93183" lon="-1.0548">
        <ele>186</ele>
        <time>2011-11-10T19:53:11Z</time>
      </trkpt>
      <trkpt lat="46.93193" lon="-1.05504">
        <ele>186</ele>
        <time>2011-11-10T19:53:14Z</time>
      </trkpt>
      <trkpt lat="46.93231" lon="-1.05533">
        <ele>190</ele>
        <time>2011-11-10T19:53:21Z</time>
      </trkpt>
      <trkpt lat="46.93359" lon="-1.05597">
        <ele>191</ele>
        <time>2011-11-10T19:53:43Z</time>
      </trkpt>
      <trkpt lat="46.93453" lon="-1.05634">
        <ele>188</ele>
        <time>2011-11-10T19:53:58Z</time>
      </trkpt>
      <trkpt lat="46.93565" lon="-1.05664">
        <ele>184</ele>
        <time>2011-11-10T19:54:17Z</time>
      </trkpt>
      <trkpt lat="46.93561" lon="-1.05651">
        <ele>184</ele>
        <time>2011-11-10T19:54:18Z</time>
      </trkpt>
      <trkpt lat="46.93506" lon="-1.05572">
        <ele>188</ele>
        <time>2011-11-10T19:54:30Z</time>
      </trkpt>
      <trkpt lat="46.93485" lon="-1.05535">
        <ele>188</ele>
        <time>2011-11-10T19:54:36Z</time>
      </trkpt>
      <trkpt lat="46.93457" lon="-1.05471">
        <ele>190</ele>
        <time>2011-11-10T19:54:44Z</time>
      </trkpt>
      <trkpt lat="46.93457" lon="-1.05471">
        <ele>190</ele>
        <time>2011-11-10T19:54:44Z</time>
      </trkpt>
      <trkpt lat="46.93356" lon="-1.05239">
        <ele>192</ele>
        <time>2011-11-10T19:55:14Z</time>
      </trkpt>
      <trkpt lat="46.93287" lon="-1.05048">
        <ele>192</ele>
        <time>2011-11-10T19:55:38Z</time>
      </trkpt>
      <trkpt lat="46.93208" lon="-1.04908">
        <ele>191</ele>
        <time>2011-11-10T19:55:58Z</time>
      </trkpt>
      <trkpt lat="46.93153" lon="-1.04792">
        <ele>189</ele>
        <time>2011-11-10T19:56:13Z</time>
      </trkpt>
      <trkpt lat="46.93081" lon="-1.04593">
        <ele>194</ele>
        <time>2011-11-10T19:56:38Z</time>
      </trkpt>
      <trkpt lat="46.9303" lon="-1.04421">
        <ele>195</ele>
        <time>2011-11-10T19:56:58Z</time>
      </trkpt>
      <trkpt lat="46.92977" lon="-1.04291">
        <ele>195</ele>
        <time>2011-11-10T19:57:15Z</time>
      </trkpt>
      <trkpt lat="46.92948" lon="-1.04087">
        <ele>197</ele>
        <time>2011-11-10T19:57:37Z</time>
      </trkpt>
      <trkpt lat="46.92935" lon="-1.04046">
        <ele>197</ele>
        <time>2011-11-10T19:57:42Z</time>
      </trkpt>
      <trkpt lat="46.92901" lon="-1.0397">
        <ele>196</ele>
        <time>2011-11-10T19:57:52Z</time>
      </trkpt>
      <trkpt lat="46.92875" lon="-1.03898">
        <ele>195</ele>
        <time>2011-11-10T19:58:01Z</time>
      </trkpt>
      <trkpt lat="46.92853" lon="-1.03828">
        <ele>194</ele>
        <time>2011-11-10T19:58:10Z</time>
      </trkpt>
      <trkpt lat="46.92826" lon="-1.03672">
        <ele>192</ele>
        <time>2011-11-10T19:58:27Z</time>
      </trkpt>
      <trkpt lat="46.92786" lon="-1.03575">
        <ele>193</ele>
        <time>2011-11-10T19:58:40Z</time>
      </trkpt>
      <trkpt lat="46.92779" lon="-1.03509">
        <ele>196</ele>
        <time>2011-11-10T19:58:47Z</time>
      </trkpt>
      <trkpt lat="46.92779" lon="-1.03442">
        <ele>195</ele>
        <time>2011-11-10T19:58:54Z</time>
      </trkpt>
      <trkpt lat="46.92775" lon="-1.0339">
        <ele>195</ele>
        <time>2011-11-10T19:59:00Z</time>
      </trkpt>
      <trkpt lat="46.92764" lon="-1.03346">
        <ele>194</ele>
        <time>2011-11-10T19:59:05Z</time>
      </trkpt>
      <trkpt lat="46.92714" lon="-1.03234">
        <ele>192</ele>
        <time>2011-11-10T19:59:20Z</time>
      </trkpt>
      <trkpt lat="46.92695" lon="-1.03173">
        <ele>190</ele>
        <time>2011-11-10T19:59:27Z</time>
      </trkpt>
      <trkpt lat="46.92618" lon="-1.0274">
        <ele>189</ele>
        <time>2011-11-10T20:00:16Z</time>
      </trkpt>
      <trkpt lat="46.92606" lon="-1.02699">
        <ele>190</ele>
        <time>2011-11-10T20:00:21Z</time>
      </trkpt>
      <trkpt lat="46.92518" lon="-1.02483">
        <ele>189</ele>
        <time>2011-11-10T20:00:48Z</time>
      </trkpt>
      <trkpt lat="46.92509" lon="-1.02433">
        <ele>188</ele>
        <time>2011-11-10T20:00:54Z</time>
      </trkpt>
      <trkpt lat="46.92505" lon="-1.02362">
        <ele>187</ele>
        <time>2011-11-10T20:01:02Z</time>
      </trkpt>
      <trkpt lat="46.92493" lon="-1.01947">
        <ele>191</ele>
        <time>2011-11-10T20:01:47Z</time>
      </trkpt>
      <trkpt lat="46.92465" lon="-1.01288">
        <ele>181</ele>
        <time>2011-11-10T20:02:59Z</time>
      </trkpt>
      <trkpt lat="46.92466" lon="-1.01238">
        <ele>181</ele>
        <time>2011-11-10T20:03:05Z</time>
      </trkpt>
      <trkpt lat="46.92474" lon="-1.01171">
        <ele>181</ele>
        <time>2011-11-10T20:03:12Z</time>
      </trkpt>
      <trkpt lat="46.92474" lon="-1.01171">
        <ele>181</ele>
        <time>2011-11-10T20:03:12Z</time>
      </trkpt>
      <trkpt lat="46.92494" lon="-1.01043">
        <ele>181</ele>
        <time>2011-11-10T20:03:27Z</time>
      </trkpt>
      <trkpt lat="46.92509" lon="-1.01002">
        <ele>181</ele>
        <time>2011-11-10T20:03:32Z</time>
      </trkpt>
      <trkpt lat="46.92542" lon="-1.00962">
        <ele>178</ele>
        <time>2011-11-10T20:03:39Z</time>
      </trkpt>
      <trkpt lat="46.92647" lon="-1.00875">
        <ele>176</ele>
        <time>2011-11-10T20:03:58Z</time>
      </trkpt>
      <trkpt lat="46.92682" lon="-1.00823">
        <ele>176</ele>
        <time>2011-11-10T20:04:06Z</time>
      </trkpt>
      <trkpt lat="46.92697" lon="-1.00777">
        <ele>179</ele>
        <time>2011-11-10T20:04:12Z</time>
      </trkpt>
      <trkpt lat="46.92734" lon="-1.00585">
        <ele>178</ele>
        <time>2011-11-10T20:04:33Z</time>
      </trkpt>
      <trkpt lat="46.92746" lon="-1.00499">
        <ele>175</ele>
        <time>2011-11-10T20:04:43Z</time>
      </trkpt>
      <trkpt lat="46.92746" lon="-1.00455">
        <ele>173</ele>
        <time>2011-11-10T20:04:48Z</time>
      </trkpt>
      <trkpt lat="46.9274" lon="-1.00414">
        <ele>173</ele>
        <time>2011-11-10T20:04:52Z</time>
      </trkpt>
      <trkpt lat="46.92704" lon="-1.00304">
        <ele>171</ele>
        <time>2011-11-10T20:05:06Z</time>
      </trkpt>
      <trkpt lat="46.92634" lon="-1.00113">
        <ele>169</ele>
        <time>2011-11-10T20:05:29Z</time>
      </trkpt>
      <trkpt lat="46.92612" lon="-1.00042">
        <ele>174</ele>
        <time>2011-11-10T20:05:38Z</time>
      </trkpt>
      <trkpt lat="46.92596" lon="-0.99973">
        <ele>172</ele>
        <time>2011-11-10T20:05:46Z</time>
      </trkpt>
      <trkpt lat="46.92585" lon="-0.99801">
        <ele>169</ele>
        <time>2011-11-10T20:06:05Z</time>
      </trkpt>
      <trkpt lat="46.92586" lon="-0.99666">
        <ele>171</ele>
        <time>2011-11-10T20:06:20Z</time>
      </trkpt>
      <trkpt lat="46.92599" lon="-0.99587">
        <ele>167</ele>
        <time>2011-11-10T20:06:28Z</time>
      </trkpt>
      <trkpt lat="46.92664" lon="-0.9932">
        <ele>165</ele>
        <time>2011-11-10T20:06:59Z</time>
      </trkpt>
      <trkpt lat="46.92693" lon="-0.99256">
        <ele>168</ele>
        <time>2011-11-10T20:07:08Z</time>
      </trkpt>
      <trkpt lat="46.92756" lon="-0.99158">
        <ele>173</ele>
        <time>2011-11-10T20:07:23Z</time>
      </trkpt>
      <trkpt lat="46.92769" lon="-0.99128">
        <ele>173</ele>
        <time>2011-11-10T20:07:26Z</time>
      </trkpt>
      <trkpt lat="46.92775" lon="-0.99094">
        <ele>175</ele>
        <time>2011-11-10T20:07:30Z</time>
      </trkpt>
      <trkpt lat="46.92788" lon="-0.99063">
        <ele>175</ele>
        <time>2011-11-10T20:07:34Z</time>
      </trkpt>
      <trkpt lat="46.92793" lon="-0.99023">
        <ele>180</ele>
        <time>2011-11-10T20:07:39Z</time>
      </trkpt>
      <trkpt lat="46.92795" lon="-0.98949">
        <ele>182</ele>
        <time>2011-11-10T20:07:47Z</time>
      </trkpt>
      <trkpt lat="46.92808" lon="-0.98866">
        <ele>182</ele>
        <time>2011-11-10T20:07:56Z</time>
      </trkpt>
      <trkpt lat="46.92823" lon="-0.98818">
        <ele>182</ele>
        <time>2011-11-10T20:08:02Z</time>
      </trkpt>
      <trkpt lat="46.92859" lon="-0.98747">
        <ele>184</ele>
        <time>2011-11-10T20:08:12Z</time>
      </trkpt>
      <trkpt lat="46.92872" lon="-0.98711">
        <ele>184</ele>
        <time>2011-11-10T20:08:16Z</time>
      </trkpt>
      <trkpt lat="46.92877" lon="-0.9867">
        <ele>184</ele>
        <time>2011-11-10T20:08:21Z</time>
      </trkpt>
      <trkpt lat="46.92884" lon="-0.98657">
        <ele>184</ele>
        <time>2011-11-10T20:08:22Z</time>
      </trkpt>
      <trkpt lat="46.92891" lon="-0.98608">
        <ele>184</ele>
        <time>2011-11-10T20:08:28Z</time>
      </trkpt>
      <trkpt lat="46.92863" lon="-0.98472">
        <ele>186</ele>
        <time>2011-11-10T20:08:43Z</time>
      </trkpt>
      <trkpt lat="46.92838" lon="-0.98373">
        <ele>184</ele>
        <time>2011-11-10T20:08:55Z</time>
      </trkpt>
      <trkpt lat="46.92792" lon="-0.98289">
        <ele>181</ele>
        <time>2011-11-10T20:09:07Z</time>
      </trkpt>
      <trkpt lat="46.92767" lon="-0.98227">
        <ele>184</ele>
        <time>2011-11-10T20:09:15Z</time>
      </trkpt>
      <trkpt lat="46.92756" lon="-0.98175">
        <ele>186</ele>
        <time>2011-11-10T20:09:21Z</time>
      </trkpt>
      <trkpt lat="46.92743" lon="-0.98071">
        <ele>188</ele>
        <time>2011-11-10T20:09:32Z</time>
      </trkpt>
      <trkpt lat="46.92736" lon="-0.98037">
        <ele>188</ele>
        <time>2011-11-10T20:09:36Z</time>
      </trkpt>
      <trkpt lat="46.92717" lon="-0.97981">
        <ele>188</ele>
        <time>2011-11-10T20:09:43Z</time>
      </trkpt>
      <trkpt lat="46.92698" lon="-0.97942">
        <ele>190</ele>
        <time>2011-11-10T20:09:48Z</time>
      </trkpt>
      <trkpt lat="46.92614" lon="-0.97812">
        <ele>195</ele>
        <time>2011-11-10T20:10:08Z</time>
      </trkpt>
      <trkpt lat="46.9252" lon="-0.97593">
        <ele>206</ele>
        <time>2011-11-10T20:10:36Z</time>
      </trkpt>
      <trkpt lat="46.92469" lon="-0.97493">
        <ele>207</ele>
        <time>2011-11-10T20:10:50Z</time>
      </trkpt>
      <trkpt lat="46.92412" lon="-0.9741">
        <ele>213</ele>
        <time>2011-11-10T20:11:02Z</time>
      </trkpt>
      <trkpt lat="46.92353" lon="-0.97347">
        <ele>209</ele>
        <time>2011-11-10T20:11:14Z</time>
      </trkpt>
      <trkpt lat="46.92353" lon="-0.97347">
        <ele>209</ele>
        <time>2011-11-10T20:11:14Z</time>
      </trkpt>
      <trkpt lat="46.92328" lon="-0.97323">
        <ele>209</ele>
        <time>2011-11-10T20:11:19Z</time>
      </trkpt>
      <trkpt lat="46.92299" lon="-0.97311">
        <ele>209</ele>
        <time>2011-11-10T20:11:24Z</time>
      </trkpt>
      <trkpt lat="46.92286" lon="-0.97312">
        <ele>205</ele>
        <time>2011-11-10T20:11:26Z</time>
      </trkpt>
      <trkpt lat="46.92273" lon="-0.97293">
        <ele>205</ele>
        <time>2011-11-10T20:11:29Z</time>
      </trkpt>
      <trkpt lat="46.92234" lon="-0.97275">
        <ele>206</ele>
        <time>2011-11-10T20:11:35Z</time>
      </trkpt>
      <trkpt lat="46.92004" lon="-0.97222">
        <ele>198</ele>
        <time>2011-11-10T20:12:13Z</time>
      </trkpt>
      <trkpt lat="46.91947" lon="-0.97198">
        <ele>203</ele>
        <time>2011-11-10T20:12:22Z</time>
      </trkpt>
      <trkpt lat="46.91926" lon="-0.97184">
        <ele>203</ele>
        <time>2011-11-10T20:12:26Z</time>
      </trkpt>
      <trkpt lat="46.91868" lon="-0.97136">
        <ele>206</ele>
        <time>2011-11-10T20:12:36Z</time>
      </trkpt>
      <trkpt lat="46.91808" lon="-0.97062">
        <ele>209</ele>
        <time>2011-11-10T20:12:49Z</time>
      </trkpt>
      <trkpt lat="46.91774" lon="-0.97002">
        <ele>211</ele>
        <time>2011-11-10T20:12:58Z</time>
      </trkpt>
      <trkpt lat="46.91743" lon="-0.96927">
        <ele>209</ele>
        <time>2011-11-10T20:13:07Z</time>
      </trkpt>
      <trkpt lat="46.91728" lon="-0.9688">
        <ele>209</ele>
        <time>2011-11-10T20:13:13Z</time>
      </trkpt>
      <trkpt lat="46.91709" lon="-0.96782">
        <ele>200</ele>
        <time>2011-11-10T20:13:24Z</time>
      </trkpt>
      <trkpt lat="46.91705" lon="-0.96748">
        <ele>201</ele>
        <time>2011-11-10T20:13:28Z</time>
      </trkpt>
      <trkpt lat="46.91704" lon="-0.96649">
        <ele>204</ele>
        <time>2011-11-10T20:13:39Z</time>
      </trkpt>
      <trkpt lat="46.91708" lon="-0.96599">
        <ele>206</ele>
        <time>2011-11-10T20:13:44Z</time>
      </trkpt>
      <trkpt lat="46.91721" lon="-0.96522">
        <ele>203</ele>
        <time>2011-11-10T20:13:53Z</time>
      </trkpt>
      <trkpt lat="46.91782" lon="-0.96315">
        <ele>192</ele>
        <time>2011-11-10T20:14:17Z</time>
      </trkpt>
      <trkpt lat="46.91801" lon="-0.96231">
        <ele>189</ele>
        <time>2011-11-10T20:14:27Z</time>
      </trkpt>
      <trkpt lat="46.91808" lon="-0.96174">
        <ele>189</ele>
        <time>2011-11-10T20:14:33Z</time>
      </trkpt>
      <trkpt lat="46.91809" lon="-0.96082">
        <ele>186</ele>
        <time>2011-11-10T20:14:43Z</time>
      </trkpt>
      <trkpt lat="46.91798" lon="-0.95985">
        <ele>185</ele>
        <time>2011-11-10T20:14:54Z</time>
      </trkpt>
      <trkpt lat="46.91787" lon="-0.9593">
        <ele>185</ele>
        <time>2011-11-10T20:15:00Z</time>
      </trkpt>
      <trkpt lat="46.91704" lon="-0.95643">
        <ele>187</ele>
        <time>2011-11-10T20:15:35Z</time>
      </trkpt>
      <trkpt lat="46.91691" lon="-0.9555">
        <ele>185</ele>
        <time>2011-11-10T20:15:45Z</time>
      </trkpt>
      <trkpt lat="46.91673" lon="-0.95259">
        <ele>176</ele>
        <time>2011-11-10T20:16:17Z</time>
      </trkpt>
      <trkpt lat="46.91665" lon="-0.95236">
        <ele>176</ele>
        <time>2011-11-10T20:16:20Z</time>
      </trkpt>
      <trkpt lat="46.91658" lon="-0.95161">
        <ele>174</ele>
        <time>2011-11-10T20:16:28Z</time>
      </trkpt>
      <trkpt lat="46.9165" lon="-0.95116">
        <ele>173</ele>
        <time>2011-11-10T20:16:33Z</time>
      </trkpt>
      <trkpt lat="46.91636" lon="-0.95067">
        <ele>173</ele>
        <time>2011-11-10T20:16:39Z</time>
      </trkpt>
      <trkpt lat="46.91604" lon="-0.95003">
        <ele>174</ele>
        <time>2011-11-10T20:16:48Z</time>
      </trkpt>
      <trkpt lat="46.91526" lon="-0.94901">
        <ele>172</ele>
        <time>2011-11-10T20:17:04Z</time>
      </trkpt>
      <trkpt lat="46.91476" lon="-0.94847">
        <ele>169</ele>
        <time>2011-11-10T20:17:14Z</time>
      </trkpt>
      <trkpt lat="46.9145" lon="-0.94826">
        <ele>167</ele>
        <time>2011-11-10T20:17:19Z</time>
      </trkpt>
      <trkpt lat="46.91354" lon="-0.94771">
        <ele>166</ele>
        <time>2011-11-10T20:17:36Z</time>
      </trkpt>
      <trkpt lat="46.91313" lon="-0.94768">
        <ele>166</ele>
        <time>2011-11-10T20:17:42Z</time>
      </trkpt>
      <trkpt lat="46.91086" lon="-0.94787">
        <ele>180</ele>
        <time>2011-11-10T20:18:19Z</time>
      </trkpt>
      <trkpt lat="46.91043" lon="-0.94777">
        <ele>180</ele>
        <time>2011-11-10T20:18:26Z</time>
      </trkpt>
      <trkpt lat="46.91013" lon="-0.94762">
        <ele>186</ele>
        <time>2011-11-10T20:18:31Z</time>
      </trkpt>
      <trkpt lat="46.9096" lon="-0.9472">
        <ele>186</ele>
        <time>2011-11-10T20:18:40Z</time>
      </trkpt>
      <trkpt lat="46.90886" lon="-0.94635">
        <ele>194</ele>
        <time>2011-11-10T20:18:55Z</time>
      </trkpt>
      <trkpt lat="46.90843" lon="-0.94598">
        <ele>193</ele>
        <time>2011-11-10T20:19:03Z</time>
      </trkpt>
      <trkpt lat="46.90788" lon="-0.94575">
        <ele>204</ele>
        <time>2011-11-10T20:19:12Z</time>
      </trkpt>
      <trkpt lat="46.90676" lon="-0.94547">
        <ele>209</ele>
        <time>2011-11-10T20:19:31Z</time>
      </trkpt>
      <trkpt lat="46.90641" lon="-0.94531">
        <ele>209</ele>
        <time>2011-11-10T20:19:37Z</time>
      </trkpt>
      <trkpt lat="46.90591" lon="-0.94496">
        <ele>212</ele>
        <time>2011-11-10T20:19:45Z</time>
      </trkpt>
      <trkpt lat="46.90542" lon="-0.94443">
        <ele>209</ele>
        <time>2011-11-10T20:19:55Z</time>
      </trkpt>
      <trkpt lat="46.90508" lon="-0.94395">
        <ele>213</ele>
        <time>2011-11-10T20:20:03Z</time>
      </trkpt>
      <trkpt lat="46.90482" lon="-0.94346">
        <ele>213</ele>
        <time>2011-11-10T20:20:09Z</time>
      </trkpt>
      <trkpt lat="46.90482" lon="-0.94346">
        <ele>213</ele>
        <time>2011-11-10T20:20:09Z</time>
      </trkpt>
      <trkpt lat="46.90451" lon="-0.94256">
        <ele>215</ele>
        <time>2011-11-10T20:20:21Z</time>
      </trkpt>
      <trkpt lat="46.90411" lon="-0.94111">
        <ele>223</ele>
        <time>2011-11-10T20:20:38Z</time>
      </trkpt>
      <trkpt lat="46.90386" lon="-0.94048">
        <ele>223</ele>
        <time>2011-11-10T20:20:46Z</time>
      </trkpt>
      <trkpt lat="46.90361" lon="-0.94001">
        <ele>226</ele>
        <time>2011-11-10T20:20:52Z</time>
      </trkpt>
      <trkpt lat="46.90227" lon="-0.93816">
        <ele>230</ele>
        <time>2011-11-10T20:21:22Z</time>
      </trkpt>
      <trkpt lat="46.90196" lon="-0.93784">
        <ele>227</ele>
        <time>2011-11-10T20:21:28Z</time>
      </trkpt>
      <trkpt lat="46.90063" lon="-0.93678">
        <ele>228</ele>
        <time>2011-11-10T20:21:52Z</time>
      </trkpt>
      <trkpt lat="46.90007" lon="-0.93616">
        <ele>228</ele>
        <time>2011-11-10T20:22:03Z</time>
      </trkpt>
      <trkpt lat="46.89979" lon="-0.9357">
        <ele>228</ele>
        <time>2011-11-10T20:22:10Z</time>
      </trkpt>
      <trkpt lat="46.89949" lon="-0.93505">
        <ele>224</ele>
        <time>2011-11-10T20:22:18Z</time>
      </trkpt>
      <trkpt lat="46.89924" lon="-0.93418">
        <ele>227</ele>
        <time>2011-11-10T20:22:29Z</time>
      </trkpt>
      <trkpt lat="46.89912" lon="-0.93344">
        <ele>231</ele>
        <time>2011-11-10T20:22:37Z</time>
      </trkpt>
      <trkpt lat="46.89909" lon="-0.93294">
        <ele>231</ele>
        <time>2011-11-10T20:22:43Z</time>
      </trkpt>
      <trkpt lat="46.89911" lon="-0.93076">
        <ele>228</ele>
        <time>2011-11-10T20:23:06Z</time>
      </trkpt>
      <trkpt lat="46.89904" lon="-0.92981">
        <ele>226</ele>
        <time>2011-11-10T20:23:17Z</time>
      </trkpt>
      <trkpt lat="46.89891" lon="-0.92913">
        <ele>223</ele>
        <time>2011-11-10T20:23:25Z</time>
      </trkpt>
      <trkpt lat="46.89875" lon="-0.92861">
        <ele>218</ele>
        <time>2011-11-10T20:23:31Z</time>
      </trkpt>
      <trkpt lat="46.89847" lon="-0.92803">
        <ele>217</ele>
        <time>2011-11-10T20:23:39Z</time>
      </trkpt>
      <trkpt lat="46.89795" lon="-0.92737">
        <ele>212</ele>
        <time>2011-11-10T20:23:50Z</time>
      </trkpt>
      <trkpt lat="46.89741" lon="-0.92698">
        <ele>208</ele>
        <time>2011-11-10T20:23:59Z</time>
      </trkpt>
      <trkpt lat="46.89648" lon="-0.92651">
        <ele>207</ele>
        <time>2011-11-10T20:24:15Z</time>
      </trkpt>
      <trkpt lat="46.89491" lon="-0.92594">
        <ele>205</ele>
        <time>2011-11-10T20:24:41Z</time>
      </trkpt>
      <trkpt lat="46.89464" lon="-0.9258">
        <ele>205</ele>
        <time>2011-11-10T20:24:46Z</time>
      </trkpt>
      <trkpt lat="46.89423" lon="-0.92554">
        <ele>205</ele>
        <time>2011-11-10T20:24:53Z</time>
      </trkpt>
      <trkpt lat="46.89388" lon="-0.92524">
        <ele>204</ele>
        <time>2011-11-10T20:24:59Z</time>
      </trkpt>
      <trkpt lat="46.89361" lon="-0.92494">
        <ele>207</ele>
        <time>2011-11-10T20:25:05Z</time>
      </trkpt>
      <trkpt lat="46.89119" lon="-0.92165">
        <ele>215</ele>
        <time>2011-11-10T20:25:58Z</time>
      </trkpt>
      <trkpt lat="46.89072" lon="-0.92088">
        <ele>214</ele>
        <time>2011-11-10T20:26:09Z</time>
      </trkpt>
      <trkpt lat="46.89055" lon="-0.92042">
        <ele>214</ele>
        <time>2011-11-10T20:26:15Z</time>
      </trkpt>
      <trkpt lat="46.88986" lon="-0.91808">
        <ele>212</ele>
        <time>2011-11-10T20:26:42Z</time>
      </trkpt>
      <trkpt lat="46.88956" lon="-0.91728">
        <ele>211</ele>
        <time>2011-11-10T20:26:52Z</time>
      </trkpt>
      <trkpt lat="46.88923" lon="-0.91668">
        <ele>208</ele>
        <time>2011-11-10T20:27:01Z</time>
      </trkpt>
      <trkpt lat="46.88867" lon="-0.91598">
        <ele>205</ele>
        <time>2011-11-10T20:27:13Z</time>
      </trkpt>
      <trkpt lat="46.88768" lon="-0.91499">
        <ele>203</ele>
        <time>2011-11-10T20:27:32Z</time>
      </trkpt>
      <trkpt lat="46.8866" lon="-0.91339">
        <ele>203</ele>
        <time>2011-11-10T20:27:56Z</time>
      </trkpt>
      <trkpt lat="46.88607" lon="-0.91268">
        <ele>206</ele>
        <time>2011-11-10T20:28:08Z</time>
      </trkpt>
      <trkpt lat="46.88526" lon="-0.91185">
        <ele>204</ele>
        <time>2011-11-10T20:28:24Z</time>
      </trkpt>
      <trkpt lat="46.88434" lon="-0.91109">
        <ele>200</ele>
        <time>2011-11-10T20:28:41Z</time>
      </trkpt>
      <trkpt lat="46.88434" lon="-0.91109">
        <ele>200</ele>
        <time>2011-11-10T20:28:41Z</time>
      </trkpt>
      <trkpt lat="46.88362" lon="-0.91064">
        <ele>209</ele>
        <time>2011-11-10T20:28:53Z</time>
      </trkpt>
      <trkpt lat="46.8835" lon="-0.91058">
        <ele>209</ele>
        <time>2011-11-10T20:28:55Z</time>
      </trkpt>
      <trkpt lat="46.88339" lon="-0.91059">
        <ele>209</ele>
        <time>2011-11-10T20:28:57Z</time>
      </trkpt>
      <trkpt lat="46.88324" lon="-0.91069">
        <ele>209</ele>
        <time>2011-11-10T20:29:00Z</time>
      </trkpt>
      <trkpt lat="46.88318" lon="-0.91068">
        <ele>209</ele>
        <time>2011-11-10T20:29:01Z</time>
      </trkpt>
      <trkpt lat="46.88303" lon="-0.91052">
        <ele>209</ele>
        <time>2011-11-10T20:29:04Z</time>
      </trkpt>
      <trkpt lat="46.88292" lon="-0.9105">
        <ele>209</ele>
        <time>2011-11-10T20:29:05Z</time>
      </trkpt>
      <trkpt lat="46.88179" lon="-0.91067">
        <ele>202</ele>
        <time>2011-11-10T20:29:24Z</time>
      </trkpt>
      <trkpt lat="46.88131" lon="-0.91064">
        <ele>202</ele>
        <time>2011-11-10T20:29:31Z</time>
      </trkpt>
      <trkpt lat="46.88098" lon="-0.91053">
        <ele>199</ele>
        <time>2011-11-10T20:29:37Z</time>
      </trkpt>
      <trkpt lat="46.87921" lon="-0.90958">
        <ele>183</ele>
        <time>2011-11-10T20:30:07Z</time>
      </trkpt>
      <trkpt lat="46.87615" lon="-0.90788">
        <ele>175</ele>
        <time>2011-11-10T20:30:59Z</time>
      </trkpt>
      <trkpt lat="46.87562" lon="-0.90753">
        <ele>175</ele>
        <time>2011-11-10T20:31:09Z</time>
      </trkpt>
      <trkpt lat="46.87479" lon="-0.90684">
        <ele>177</ele>
        <time>2011-11-10T20:31:24Z</time>
      </trkpt>
      <trkpt lat="46.87406" lon="-0.90605">
        <ele>178</ele>
        <time>2011-11-10T20:31:38Z</time>
      </trkpt>
      <trkpt lat="46.87326" lon="-0.90508">
        <ele>182</ele>
        <time>2011-11-10T20:31:55Z</time>
      </trkpt>
      <trkpt lat="46.87291" lon="-0.90481">
        <ele>183</ele>
        <time>2011-11-10T20:32:01Z</time>
      </trkpt>
      <trkpt lat="46.87279" lon="-0.90485">
        <ele>183</ele>
        <time>2011-11-10T20:32:03Z</time>
      </trkpt>
      <trkpt lat="46.87266" lon="-0.9048">
        <ele>183</ele>
        <time>2011-11-10T20:32:06Z</time>
      </trkpt>
      <trkpt lat="46.87245" lon="-0.90425">
        <ele>185</ele>
        <time>2011-11-10T20:32:12Z</time>
      </trkpt>
      <trkpt lat="46.87222" lon="-0.90396">
        <ele>185</ele>
        <time>2011-11-10T20:32:17Z</time>
      </trkpt>
      <trkpt lat="46.86902" lon="-0.90073">
        <ele>197</ele>
        <time>2011-11-10T20:33:20Z</time>
      </trkpt>
      <trkpt lat="46.86862" lon="-0.90022">
        <ele>196</ele>
        <time>2011-11-10T20:33:28Z</time>
      </trkpt>
      <trkpt lat="46.86838" lon="-0.89984">
        <ele>196</ele>
        <time>2011-11-10T20:33:34Z</time>
      </trkpt>
      <trkpt lat="46.86807" lon="-0.89918">
        <ele>194</ele>
        <time>2011-11-10T20:33:42Z</time>
      </trkpt>
      <trkpt lat="46.8679" lon="-0.89869">
        <ele>197</ele>
        <time>2011-11-10T20:33:48Z</time>
      </trkpt>
      <trkpt lat="46.86595" lon="-0.89237">
        <ele>189</ele>
        <time>2011-11-10T20:35:04Z</time>
      </trkpt>
      <trkpt lat="46.86574" lon="-0.89191">
        <ele>188</ele>
        <time>2011-11-10T20:35:10Z</time>
      </trkpt>
      <trkpt lat="46.86549" lon="-0.89148">
        <ele>188</ele>
        <time>2011-11-10T20:35:17Z</time>
      </trkpt>
      <trkpt lat="46.86522" lon="-0.89109">
        <ele>189</ele>
        <time>2011-11-10T20:35:23Z</time>
      </trkpt>
      <trkpt lat="46.86492" lon="-0.89076">
        <ele>189</ele>
        <time>2011-11-10T20:35:29Z</time>
      </trkpt>
      <trkpt lat="46.86425" lon="-0.89023">
        <ele>187</ele>
        <time>2011-11-10T20:35:41Z</time>
      </trkpt>
      <trkpt lat="46.86351" lon="-0.8899">
        <ele>189</ele>
        <time>2011-11-10T20:35:53Z</time>
      </trkpt>
      <trkpt lat="46.86161" lon="-0.88962">
        <ele>198</ele>
        <time>2011-11-10T20:36:24Z</time>
      </trkpt>
      <trkpt lat="46.85935" lon="-0.8896">
        <ele>211</ele>
        <time>2011-11-10T20:37:00Z</time>
      </trkpt>
      <trkpt lat="46.85801" lon="-0.88925">
        <ele>216</ele>
        <time>2011-11-10T20:37:22Z</time>
      </trkpt>
      <trkpt lat="46.85766" lon="-0.88922">
        <ele>220</ele>
        <time>2011-11-10T20:37:27Z</time>
      </trkpt>
      <trkpt lat="46.85745" lon="-0.88924">
        <ele>220</ele>
        <time>2011-11-10T20:37:31Z</time>
      </trkpt>
      <trkpt lat="46.857" lon="-0.8894">
        <ele>223</ele>
        <time>2011-11-10T20:37:38Z</time>
      </trkpt>
      <trkpt lat="46.85453" lon="-0.89044">
        <ele>233</ele>
        <time>2011-11-10T20:38:19Z</time>
      </trkpt>
      <trkpt lat="46.85388" lon="-0.89049">
        <ele>233</ele>
        <time>2011-11-10T20:38:30Z</time>
      </trkpt>
      <trkpt lat="46.85322" lon="-0.89028">
        <ele>235</ele>
        <time>2011-11-10T20:38:41Z</time>
      </trkpt>
      <trkpt lat="46.8529" lon="-0.89007">
        <ele>234</ele>
        <time>2011-11-10T20:38:46Z</time>
      </trkpt>
      <trkpt lat="46.8525" lon="-0.88969">
        <ele>234</ele>
        <time>2011-11-10T20:38:54Z</time>
      </trkpt>
      <trkpt lat="46.85216" lon="-0.88917">
        <ele>237</ele>
        <time>2011-11-10T20:39:02Z</time>
      </trkpt>
      <trkpt lat="46.85194" lon="-0.88871">
        <ele>231</ele>
        <time>2011-11-10T20:39:08Z</time>
      </trkpt>
      <trkpt lat="46.85123" lon="-0.88655">
        <ele>226</ele>
        <time>2011-11-10T20:39:34Z</time>
      </trkpt>
      <trkpt lat="46.85091" lon="-0.88434">
        <ele>222</ele>
        <time>2011-11-10T20:39:59Z</time>
      </trkpt>
      <trkpt lat="46.85078" lon="-0.88377">
        <ele>222</ele>
        <time>2011-11-10T20:40:05Z</time>
      </trkpt>
      <trkpt lat="46.85059" lon="-0.88337">
        <ele>225</ele>
        <time>2011-11-10T20:40:11Z</time>
      </trkpt>
      <trkpt lat="46.85039" lon="-0.88309">
        <ele>214</ele>
        <time>2011-11-10T20:40:15Z</time>
      </trkpt>
      <trkpt lat="46.85013" lon="-0.88283">
        <ele>217</ele>
        <time>2011-11-10T20:40:20Z</time>
      </trkpt>
      <trkpt lat="46.84988" lon="-0.88268">
        <ele>217</ele>
        <time>2011-11-10T20:40:25Z</time>
      </trkpt>
      <trkpt lat="46.84957" lon="-0.88258">
        <ele>216</ele>
        <time>2011-11-10T20:40:30Z</time>
      </trkpt>
      <trkpt lat="46.84918" lon="-0.8826">
        <ele>216</ele>
        <time>2011-11-10T20:40:36Z</time>
      </trkpt>
      <trkpt lat="46.84709" lon="-0.8834">
        <ele>235</ele>
        <time>2011-11-10T20:41:11Z</time>
      </trkpt>
      <trkpt lat="46.84672" lon="-0.88358">
        <ele>242</ele>
        <time>2011-11-10T20:41:17Z</time>
      </trkpt>
      <trkpt lat="46.84443" lon="-0.88497">
        <ele>236</ele>
        <time>2011-11-10T20:41:57Z</time>
      </trkpt>
      <trkpt lat="46.84391" lon="-0.88513">
        <ele>236</ele>
        <time>2011-11-10T20:42:05Z</time>
      </trkpt>
      <trkpt lat="46.83591" lon="-0.88637">
        <ele>248</ele>
        <time>2011-11-10T20:44:14Z</time>
      </trkpt>
      <trkpt lat="46.83516" lon="-0.88643">
        <ele>249</ele>
        <time>2011-11-10T20:44:26Z</time>
      </trkpt>
      <trkpt lat="46.83459" lon="-0.88639">
        <ele>249</ele>
        <time>2011-11-10T20:44:35Z</time>
      </trkpt>
      <trkpt lat="46.83459" lon="-0.88639">
        <ele>249</ele>
        <time>2011-11-10T20:44:35Z</time>
      </trkpt>
      <trkpt lat="46.83302" lon="-0.88626">
        <ele>256</ele>
        <time>2011-11-10T20:45:00Z</time>
      </trkpt>
      <trkpt lat="46.83279" lon="-0.88631">
        <ele>257</ele>
        <time>2011-11-10T20:45:04Z</time>
      </trkpt>
      <trkpt lat="46.83259" lon="-0.88645">
        <ele>257</ele>
        <time>2011-11-10T20:45:07Z</time>
      </trkpt>
      <trkpt lat="46.83239" lon="-0.88592">
        <ele>260</ele>
        <time>2011-11-10T20:45:14Z</time>
      </trkpt>
      <trkpt lat="46.832" lon="-0.8853">
        <ele>269</ele>
        <time>2011-11-10T20:45:23Z</time>
      </trkpt>
      <trkpt lat="46.83161" lon="-0.88494">
        <ele>269</ele>
        <time>2011-11-10T20:45:31Z</time>
      </trkpt>
      <trkpt lat="46.83131" lon="-0.88473">
        <ele>269</ele>
        <time>2011-11-10T20:45:36Z</time>
      </trkpt>
      <trkpt lat="46.83074" lon="-0.88445">
        <ele>276</ele>
        <time>2011-11-10T20:45:46Z</time>
      </trkpt>
      <trkpt lat="46.83074" lon="-0.88444">
        <ele>276</ele>
        <time>2011-11-10T20:45:46Z</time>
      </trkpt>
      <trkpt lat="46.82985" lon="-0.88406">
        <ele>272</ele>
        <time>2011-11-10T20:46:01Z</time>
      </trkpt>
      <trkpt lat="46.82961" lon="-0.88385">
        <ele>272</ele>
        <time>2011-11-10T20:46:05Z</time>
      </trkpt>
      <trkpt lat="46.82934" lon="-0.8834">
        <ele>260</ele>
        <time>2011-11-10T20:46:12Z</time>
      </trkpt>
      <trkpt lat="46.83012" lon="-0.88252">
        <ele>265</ele>
        <time>2011-11-10T20:46:27Z</time>
      </trkpt>
      <trkpt lat="46.83027" lon="-0.88214">
        <ele>265</ele>
        <time>2011-11-10T20:46:32Z</time>
      </trkpt>
      <trkpt lat="46.83031" lon="-0.88158">
        <ele>257</ele>
        <time>2011-11-10T20:46:38Z</time>
      </trkpt>
      <trkpt lat="46.83022" lon="-0.88079">
        <ele>252</ele>
        <time>2011-11-10T20:46:47Z</time>
      </trkpt>
      <trkpt lat="46.83022" lon="-0.88052">
        <ele>252</ele>
        <time>2011-11-10T20:46:50Z</time>
      </trkpt>
      <trkpt lat="46.83046" lon="-0.8793">
        <ele>242</ele>
        <time>2011-11-10T20:47:04Z</time>
      </trkpt>
      <trkpt lat="46.83044" lon="-0.87904">
        <ele>242</ele>
        <time>2011-11-10T20:47:07Z</time>
      </trkpt>
      <trkpt lat="46.83019" lon="-0.87795">
        <ele>241</ele>
        <time>2011-11-10T20:47:19Z</time>
      </trkpt>
      <trkpt lat="46.83001" lon="-0.87743">
        <ele>236</ele>
        <time>2011-11-10T20:47:26Z</time>
      </trkpt>
      <trkpt lat="46.82974" lon="-0.87698">
        <ele>232</ele>
        <time>2011-11-10T20:47:32Z</time>
      </trkpt>
      <trkpt lat="46.82962" lon="-0.87668">
        <ele>232</ele>
        <time>2011-11-10T20:47:36Z</time>
      </trkpt>
      <trkpt lat="46.82943" lon="-0.87585">
        <ele>237</ele>
        <time>2011-11-10T20:47:46Z</time>
      </trkpt>
      <trkpt lat="46.82946" lon="-0.87534">
        <ele>239</ele>
        <time>2011-11-10T20:47:51Z</time>
      </trkpt>
      <trkpt lat="46.82985" lon="-0.87408">
        <ele>236</ele>
        <time>2011-11-10T20:48:07Z</time>
      </trkpt>
      <trkpt lat="46.83003" lon="-0.87327">
        <ele>239</ele>
        <time>2011-11-10T20:48:16Z</time>
      </trkpt>
      <trkpt lat="46.83009" lon="-0.87246">
        <ele>244</ele>
        <time>2011-11-10T20:48:25Z</time>
      </trkpt>
      <trkpt lat="46.83002" lon="-0.87114">
        <ele>238</ele>
        <time>2011-11-10T20:48:39Z</time>
      </trkpt>
      <trkpt lat="46.8301" lon="-0.87064">
        <ele>238</ele>
        <time>2011-11-10T20:48:45Z</time>
      </trkpt>
      <trkpt lat="46.83056" lon="-0.86885">
        <ele>226</ele>
        <time>2011-11-10T20:49:06Z</time>
      </trkpt>
      <trkpt lat="46.83063" lon="-0.86833">
        <ele>225</ele>
        <time>2011-11-10T20:49:12Z</time>
      </trkpt>
      <trkpt lat="46.83064" lon="-0.86766">
        <ele>223</ele>
        <time>2011-11-10T20:49:19Z</time>
      </trkpt>
      <trkpt lat="46.83068" lon="-0.86746">
        <ele>223</ele>
        <time>2011-11-10T20:49:21Z</time>
      </trkpt>
      <trkpt lat="46.83101" lon="-0.8667">
        <ele>221</ele>
        <time>2011-11-10T20:49:31Z</time>
      </trkpt>
      <trkpt lat="46.83114" lon="-0.86614">
        <ele>221</ele>
        <time>2011-11-10T20:49:38Z</time>
      </trkpt>
      <trkpt lat="46.83127" lon="-0.86578">
        <ele>219</ele>
        <time>2011-11-10T20:49:42Z</time>
      </trkpt>
      <trkpt lat="46.83143" lon="-0.86556">
        <ele>219</ele>
        <time>2011-11-10T20:49:46Z</time>
      </trkpt>
      <trkpt lat="46.83206" lon="-0.86501">
        <ele>219</ele>
        <time>2011-11-10T20:49:57Z</time>
      </trkpt>
      <trkpt lat="46.83212" lon="-0.86486">
        <ele>218</ele>
        <time>2011-11-10T20:49:59Z</time>
      </trkpt>
      <trkpt lat="46.83188" lon="-0.86394">
        <ele>217</ele>
        <time>2011-11-10T20:50:10Z</time>
      </trkpt>
      <trkpt lat="46.8319" lon="-0.86368">
        <ele>216</ele>
        <time>2011-11-10T20:50:13Z</time>
      </trkpt>
      <trkpt lat="46.83215" lon="-0.86343">
        <ele>221</ele>
        <time>2011-11-10T20:50:18Z</time>
      </trkpt>
      <trkpt lat="46.83219" lon="-0.86329">
        <ele>221</ele>
        <time>2011-11-10T20:50:19Z</time>
      </trkpt>
      <trkpt lat="46.83213" lon="-0.86237">
        <ele>219</ele>
        <time>2011-11-10T20:50:30Z</time>
      </trkpt>
      <trkpt lat="46.832" lon="-0.86179">
        <ele>214</ele>
        <time>2011-11-10T20:50:36Z</time>
      </trkpt>
      <trkpt lat="46.8328" lon="-0.86119">
        <ele>210</ele>
        <time>2011-11-10T20:50:51Z</time>
      </trkpt>
      <trkpt lat="46.83286" lon="-0.86106">
        <ele>210</ele>
        <time>2011-11-10T20:50:52Z</time>
      </trkpt>
      <trkpt lat="46.83286" lon="-0.86106">
        <ele>210</ele>
        <time>2011-11-10T20:50:52Z</time>
      </trkpt>
      <trkpt lat="46.833" lon="-0.86013">
        <ele>210</ele>
        <time>2011-11-10T20:51:03Z</time>
      </trkpt>
      <trkpt lat="46.83319" lon="-0.85969">
        <ele>210</ele>
        <time>2011-11-10T20:51:09Z</time>
      </trkpt>
      <trkpt lat="46.83297" lon="-0.85928">
        <ele>205</ele>
        <time>2011-11-10T20:51:14Z</time>
      </trkpt>
      <trkpt lat="46.83274" lon="-0.85896">
        <ele>204</ele>
        <time>2011-11-10T20:51:19Z</time>
      </trkpt>
      <trkpt lat="46.83265" lon="-0.85873">
        <ele>205</ele>
        <time>2011-11-10T20:51:22Z</time>
      </trkpt>
      <trkpt lat="46.8324" lon="-0.85866">
        <ele>205</ele>
        <time>2011-11-10T20:51:26Z</time>
      </trkpt>
      <trkpt lat="46.8316" lon="-0.85797">
        <ele>207</ele>
        <time>2011-11-10T20:51:41Z</time>
      </trkpt>
      <trkpt lat="46.83128" lon="-0.85834">
        <ele>207</ele>
        <time>2011-11-10T20:51:48Z</time>
      </trkpt>
      <trkpt lat="46.83089" lon="-0.85826">
        <ele>212</ele>
        <time>2011-11-10T20:51:54Z</time>
      </trkpt>
      <trkpt lat="46.83013" lon="-0.85793">
        <ele>214</ele>
        <time>2011-11-10T20:52:07Z</time>
      </trkpt>
      <trkpt lat="46.82964" lon="-0.85768">
        <ele>215</ele>
        <time>2011-11-10T20:52:15Z</time>
      </trkpt>
      <trkpt lat="46.82899" lon="-0.85692">
        <ele>215</ele>
        <time>2011-11-10T20:52:28Z</time>
      </trkpt>
      <trkpt lat="46.82836" lon="-0.85653">
        <ele>206</ele>
        <time>2011-11-10T20:52:39Z</time>
      </trkpt>
      <trkpt lat="46.82815" lon="-0.85649">
        <ele>206</ele>
        <time>2011-11-10T20:52:43Z</time>
      </trkpt>
      <trkpt lat="46.8281" lon="-0.85639">
        <ele>206</ele>
        <time>2011-11-10T20:52:44Z</time>
      </trkpt>
      <trkpt lat="46.82769" lon="-0.85614">
        <ele>198</ele>
        <time>2011-11-10T20:52:51Z</time>
      </trkpt>
      <trkpt lat="46.82689" lon="-0.85575">
        <ele>194</ele>
        <time>2011-11-10T20:53:05Z</time>
      </trkpt>
      <trkpt lat="46.8264" lon="-0.85572">
        <ele>194</ele>
        <time>2011-11-10T20:53:13Z</time>
      </trkpt>
      <trkpt lat="46.82538" lon="-0.85587">
        <ele>185</ele>
        <time>2011-11-10T20:53:29Z</time>
      </trkpt>
      <trkpt lat="46.82418" lon="-0.85558">
        <ele>187</ele>
        <time>2011-11-10T20:53:48Z</time>
      </trkpt>
      <trkpt lat="46.82364" lon="-0.8555">
        <ele>191</ele>
        <time>2011-11-10T20:53:57Z</time>
      </trkpt>
      <trkpt lat="46.82193" lon="-0.85533">
        <ele>197</ele>
        <time>2011-11-10T20:54:25Z</time>
      </trkpt>
      <trkpt lat="46.82106" lon="-0.85539">
        <ele>197</ele>
        <time>2011-11-10T20:54:38Z</time>
      </trkpt>
      <trkpt lat="46.82029" lon="-0.85521">
        <ele>200</ele>
        <time>2011-11-10T20:54:51Z</time>
      </trkpt>
      <trkpt lat="46.81978" lon="-0.855">
        <ele>200</ele>
        <time>2011-11-10T20:54:59Z</time>
      </trkpt>
      <trkpt lat="46.81942" lon="-0.85477">
        <ele>204</ele>
        <time>2011-11-10T20:55:06Z</time>
      </trkpt>
      <trkpt lat="46.81749" lon="-0.85309">
        <ele>209</ele>
        <time>2011-11-10T20:55:42Z</time>
      </trkpt>
      <trkpt lat="46.81731" lon="-0.85301">
        <ele>209</ele>
        <time>2011-11-10T20:55:45Z</time>
      </trkpt>
      <trkpt lat="46.81678" lon="-0.853">
        <ele>217</ele>
        <time>2011-11-10T20:55:53Z</time>
      </trkpt>
      <trkpt lat="46.81471" lon="-0.85346">
        <ele>224</ele>
        <time>2011-11-10T20:56:27Z</time>
      </trkpt>
      <trkpt lat="46.81341" lon="-0.85399">
        <ele>222</ele>
        <time>2011-11-10T20:56:48Z</time>
      </trkpt>
      <trkpt lat="46.81272" lon="-0.85503">
        <ele>227</ele>
        <time>2011-11-10T20:57:04Z</time>
      </trkpt>
      <trkpt lat="46.81225" lon="-0.85565">
        <ele>226</ele>
        <time>2011-11-10T20:57:14Z</time>
      </trkpt>
      <trkpt lat="46.8118" lon="-0.85614">
        <ele>219</ele>
        <time>2011-11-10T20:57:23Z</time>
      </trkpt>
      <trkpt lat="46.81046" lon="-0.85744">
        <ele>221</ele>
        <time>2011-11-10T20:57:49Z</time>
      </trkpt>
      <trkpt lat="46.80977" lon="-0.85829">
        <ele>220</ele>
        <time>2011-11-10T20:58:04Z</time>
      </trkpt>
      <trkpt lat="46.80979" lon="-0.85848">
        <ele>220</ele>
        <time>2011-11-10T20:58:06Z</time>
      </trkpt>
      <trkpt lat="46.80972" lon="-0.85857">
        <ele>220</ele>
        <time>2011-11-10T20:58:07Z</time>
      </trkpt>
      <trkpt lat="46.80965" lon="-0.85857">
        <ele>220</ele>
        <time>2011-11-10T20:58:08Z</time>
      </trkpt>
      <trkpt lat="46.80957" lon="-0.85843">
        <ele>217</ele>
        <time>2011-11-10T20:58:10Z</time>
      </trkpt>
      <trkpt lat="46.8096" lon="-0.85828">
        <ele>220</ele>
        <time>2011-11-10T20:58:12Z</time>
      </trkpt>
      <trkpt lat="46.80951" lon="-0.8582">
        <ele>217</ele>
        <time>2011-11-10T20:58:14Z</time>
      </trkpt>
      <trkpt lat="46.80951" lon="-0.8582">
        <ele>217</ele>
        <time>2011-11-10T20:58:14Z</time>
      </trkpt>
      <trkpt lat="46.80932" lon="-0.85811">
        <ele>217</ele>
        <time>2011-11-10T20:58:17Z</time>
      </trkpt>
      <trkpt lat="46.80913" lon="-0.8581">
        <ele>217</ele>
        <time>2011-11-10T20:58:20Z</time>
      </trkpt>
      <trkpt lat="46.80862" lon="-0.85829">
        <ele>214</ele>
        <time>2011-11-10T20:58:28Z</time>
      </trkpt>
      <trkpt lat="46.80819" lon="-0.85826">
        <ele>214</ele>
        <time>2011-11-10T20:58:35Z</time>
      </trkpt>
      <trkpt lat="46.80698" lon="-0.85765">
        <ele>217</ele>
        <time>2011-11-10T20:58:56Z</time>
      </trkpt>
      <trkpt lat="46.8059" lon="-0.8572">
        <ele>216</ele>
        <time>2011-11-10T20:59:14Z</time>
      </trkpt>
      <trkpt lat="46.80503" lon="-0.85691">
        <ele>216</ele>
        <time>2011-11-10T20:59:28Z</time>
      </trkpt>
      <trkpt lat="46.80306" lon="-0.85647">
        <ele>209</ele>
        <time>2011-11-10T21:00:00Z</time>
      </trkpt>
      <trkpt lat="46.80228" lon="-0.8562">
        <ele>207</ele>
        <time>2011-11-10T21:00:13Z</time>
      </trkpt>
      <trkpt lat="46.80187" lon="-0.85602">
        <ele>210</ele>
        <time>2011-11-10T21:00:20Z</time>
      </trkpt>
      <trkpt lat="46.80155" lon="-0.85577">
        <ele>210</ele>
        <time>2011-11-10T21:00:25Z</time>
      </trkpt>
      <trkpt lat="46.80111" lon="-0.85525">
        <ele>216</ele>
        <time>2011-11-10T21:00:34Z</time>
      </trkpt>
      <trkpt lat="46.80065" lon="-0.85483">
        <ele>216</ele>
        <time>2011-11-10T21:00:43Z</time>
      </trkpt>
      <trkpt lat="46.80031" lon="-0.85458">
        <ele>215</ele>
        <time>2011-11-10T21:00:49Z</time>
      </trkpt>
      <trkpt lat="46.8" lon="-0.85444">
        <ele>215</ele>
        <time>2011-11-10T21:00:54Z</time>
      </trkpt>
      <trkpt lat="46.79947" lon="-0.85434">
        <ele>211</ele>
        <time>2011-11-10T21:01:03Z</time>
      </trkpt>
      <trkpt lat="46.799" lon="-0.8544">
        <ele>211</ele>
        <time>2011-11-10T21:01:11Z</time>
      </trkpt>
      <trkpt lat="46.79879" lon="-0.85449">
        <ele>211</ele>
        <time>2011-11-10T21:01:14Z</time>
      </trkpt>
      <trkpt lat="46.79823" lon="-0.85489">
        <ele>217</ele>
        <time>2011-11-10T21:01:24Z</time>
      </trkpt>
      <trkpt lat="46.79788" lon="-0.85487">
        <ele>234</ele>
        <time>2011-11-10T21:01:30Z</time>
      </trkpt>
      <trkpt lat="46.79764" lon="-0.85476">
        <ele>234</ele>
        <time>2011-11-10T21:01:34Z</time>
      </trkpt>
      <trkpt lat="46.79704" lon="-0.85433">
        <ele>245</ele>
        <time>2011-11-10T21:01:44Z</time>
      </trkpt>
      <trkpt lat="46.7968" lon="-0.85412">
        <ele>245</ele>
        <time>2011-11-10T21:01:49Z</time>
      </trkpt>
      <trkpt lat="46.79664" lon="-0.85391">
        <ele>245</ele>
        <time>2011-11-10T21:01:52Z</time>
      </trkpt>
      <trkpt lat="46.79627" lon="-0.85319">
        <ele>246</ele>
        <time>2011-11-10T21:02:02Z</time>
      </trkpt>
      <trkpt lat="46.79581" lon="-0.8516">
        <ele>251</ele>
        <time>2011-11-10T21:02:21Z</time>
      </trkpt>
      <trkpt lat="46.79568" lon="-0.85129">
        <ele>251</ele>
        <time>2011-11-10T21:02:25Z</time>
      </trkpt>
      <trkpt lat="46.79532" lon="-0.85081">
        <ele>242</ele>
        <time>2011-11-10T21:02:33Z</time>
      </trkpt>
      <trkpt lat="46.79484" lon="-0.8505">
        <ele>242</ele>
        <time>2011-11-10T21:02:41Z</time>
      </trkpt>
      <trkpt lat="46.79429" lon="-0.8504">
        <ele>245</ele>
        <time>2011-11-10T21:02:50Z</time>
      </trkpt>
      <trkpt lat="46.79391" lon="-0.85039">
        <ele>245</ele>
        <time>2011-11-10T21:02:56Z</time>
      </trkpt>
      <trkpt lat="46.79365" lon="-0.85044">
        <ele>243</ele>
        <time>2011-11-10T21:03:00Z</time>
      </trkpt>
      <trkpt lat="46.79324" lon="-0.85064">
        <ele>243</ele>
        <time>2011-11-10T21:03:07Z</time>
      </trkpt>
      <trkpt lat="46.79265" lon="-0.85126">
        <ele>248</ele>
        <time>2011-11-10T21:03:19Z</time>
      </trkpt>
      <trkpt lat="46.79227" lon="-0.85155">
        <ele>248</ele>
        <time>2011-11-10T21:03:26Z</time>
      </trkpt>
      <trkpt lat="46.79195" lon="-0.85166">
        <ele>246</ele>
        <time>2011-11-10T21:03:31Z</time>
      </trkpt>
      <trkpt lat="46.7917" lon="-0.85165">
        <ele>246</ele>
        <time>2011-11-10T21:03:35Z</time>
      </trkpt>
      <trkpt lat="46.79146" lon="-0.85156">
        <ele>246</ele>
        <time>2011-11-10T21:03:39Z</time>
      </trkpt>
      <trkpt lat="46.79118" lon="-0.85132">
        <ele>241</ele>
        <time>2011-11-10T21:03:44Z</time>
      </trkpt>
      <trkpt lat="46.79087" lon="-0.8508">
        <ele>248</ele>
        <time>2011-11-10T21:03:52Z</time>
      </trkpt>
      <trkpt lat="46.7907" lon="-0.85022">
        <ele>250</ele>
        <time>2011-11-10T21:03:59Z</time>
      </trkpt>
      <trkpt lat="46.79062" lon="-0.84916">
        <ele>252</ele>
        <time>2011-11-10T21:04:10Z</time>
      </trkpt>
      <trkpt lat="46.79056" lon="-0.84881">
        <ele>252</ele>
        <time>2011-11-10T21:04:14Z</time>
      </trkpt>
      <trkpt lat="46.79042" lon="-0.84847">
        <ele>254</ele>
        <time>2011-11-10T21:04:19Z</time>
      </trkpt>
      <trkpt lat="46.79021" lon="-0.84814">
        <ele>242</ele>
        <time>2011-11-10T21:04:24Z</time>
      </trkpt>
      <trkpt lat="46.78965" lon="-0.84757">
        <ele>253</ele>
        <time>2011-11-10T21:04:35Z</time>
      </trkpt>
      <trkpt lat="46.78933" lon="-0.84733">
        <ele>237</ele>
        <time>2011-11-10T21:04:40Z</time>
      </trkpt>
      <trkpt lat="46.78889" lon="-0.84719">
        <ele>237</ele>
        <time>2011-11-10T21:04:48Z</time>
      </trkpt>
      <trkpt lat="46.78811" lon="-0.84721">
        <ele>224</ele>
        <time>2011-11-10T21:05:00Z</time>
      </trkpt>
      <trkpt lat="46.78765" lon="-0.84712">
        <ele>219</ele>
        <time>2011-11-10T21:05:08Z</time>
      </trkpt>
      <trkpt lat="46.78695" lon="-0.84681">
        <ele>224</ele>
        <time>2011-11-10T21:05:19Z</time>
      </trkpt>
      <trkpt lat="46.78627" lon="-0.8463">
        <ele>224</ele>
        <time>2011-11-10T21:05:32Z</time>
      </trkpt>
      <trkpt lat="46.78536" lon="-0.84521">
        <ele>212</ele>
        <time>2011-11-10T21:05:50Z</time>
      </trkpt>
      <trkpt lat="46.78429" lon="-0.84374">
        <ele>222</ele>
        <time>2011-11-10T21:06:14Z</time>
      </trkpt>
      <trkpt lat="46.78402" lon="-0.84308">
        <ele>222</ele>
        <time>2011-11-10T21:06:22Z</time>
      </trkpt>
      <trkpt lat="46.78357" lon="-0.84149">
        <ele>217</ele>
        <time>2011-11-10T21:06:41Z</time>
      </trkpt>
      <trkpt lat="46.78339" lon="-0.84109">
        <ele>225</ele>
        <time>2011-11-10T21:06:46Z</time>
      </trkpt>
      <trkpt lat="46.78301" lon="-0.84042">
        <ele>225</ele>
        <time>2011-11-10T21:06:56Z</time>
      </trkpt>
      <trkpt lat="46.78301" lon="-0.84042">
        <ele>225</ele>
        <time>2011-11-10T21:06:56Z</time>
      </trkpt>
      <trkpt lat="46.78194" lon="-0.83865">
        <ele>221</ele>
        <time>2011-11-10T21:07:22Z</time>
      </trkpt>
      <trkpt lat="46.78177" lon="-0.83848">
        <ele>221</ele>
        <time>2011-11-10T21:07:25Z</time>
      </trkpt>
      <trkpt lat="46.78152" lon="-0.83836">
        <ele>221</ele>
        <time>2011-11-10T21:07:29Z</time>
      </trkpt>
      <trkpt lat="46.78145" lon="-0.83858">
        <ele>221</ele>
        <time>2011-11-10T21:07:32Z</time>
      </trkpt>
      <trkpt lat="46.78125" lon="-0.83881">
        <ele>216</ele>
        <time>2011-11-10T21:07:36Z</time>
      </trkpt>
      <trkpt lat="46.78125" lon="-0.83881">
        <ele>216</ele>
        <time>2011-11-10T21:07:36Z</time>
      </trkpt>
      <trkpt lat="46.78054" lon="-0.83932">
        <ele>207</ele>
        <time>2011-11-10T21:07:49Z</time>
      </trkpt>
      <trkpt lat="46.77945" lon="-0.83973">
        <ele>196</ele>
        <time>2011-11-10T21:08:07Z</time>
      </trkpt>
      <trkpt lat="46.77911" lon="-0.83997">
        <ele>196</ele>
        <time>2011-11-10T21:08:13Z</time>
      </trkpt>
      <trkpt lat="46.77858" lon="-0.84044">
        <ele>194</ele>
        <time>2011-11-10T21:08:23Z</time>
      </trkpt>
      <trkpt lat="46.77833" lon="-0.84076">
        <ele>194</ele>
        <time>2011-11-10T21:08:28Z</time>
      </trkpt>
      <trkpt lat="46.77806" lon="-0.84132">
        <ele>198</ele>
        <time>2011-11-10T21:08:36Z</time>
      </trkpt>
      <trkpt lat="46.77789" lon="-0.84187">
        <ele>190</ele>
        <time>2011-11-10T21:08:42Z</time>
      </trkpt>
      <trkpt lat="46.77793" lon="-0.84198">
        <ele>198</ele>
        <time>2011-11-10T21:08:44Z</time>
      </trkpt>
      <trkpt lat="46.7779" lon="-0.84206">
        <ele>190</ele>
        <time>2011-11-10T21:08:45Z</time>
      </trkpt>
      <trkpt lat="46.77785" lon="-0.84207">
        <ele>190</ele>
        <time>2011-11-10T21:08:45Z</time>
      </trkpt>
      <trkpt lat="46.7778" lon="-0.84243">
        <ele>186</ele>
        <time>2011-11-10T21:08:49Z</time>
      </trkpt>
      <trkpt lat="46.77786" lon="-0.84248">
        <ele>186</ele>
        <time>2011-11-10T21:08:51Z</time>
      </trkpt>
      <trkpt lat="46.77785" lon="-0.84261">
        <ele>186</ele>
        <time>2011-11-10T21:08:52Z</time>
      </trkpt>
      <trkpt lat="46.77776" lon="-0.84263">
        <ele>186</ele>
        <time>2011-11-10T21:08:53Z</time>
      </trkpt>
      <trkpt lat="46.77772" lon="-0.84254">
        <ele>186</ele>
        <time>2011-11-10T21:08:55Z</time>
      </trkpt>
      <trkpt lat="46.77755" lon="-0.84263">
        <ele>186</ele>
        <time>2011-11-10T21:08:57Z</time>
      </trkpt>
      <trkpt lat="46.77685" lon="-0.84352">
        <ele>178</ele>
        <time>2011-11-10T21:09:12Z</time>
      </trkpt>
      <trkpt lat="46.77538" lon="-0.84511">
        <ele>167</ele>
        <time>2011-11-10T21:09:42Z</time>
      </trkpt>
      <trkpt lat="46.77531" lon="-0.84526">
        <ele>167</ele>
        <time>2011-11-10T21:09:44Z</time>
      </trkpt>
      <trkpt lat="46.77531" lon="-0.84542">
        <ele>166</ele>
        <time>2011-11-10T21:09:45Z</time>
      </trkpt>
      <trkpt lat="46.77524" lon="-0.84553">
        <ele>166</ele>
        <time>2011-11-10T21:09:47Z</time>
      </trkpt>
      <trkpt lat="46.77515" lon="-0.84555">
        <ele>166</ele>
        <time>2011-11-10T21:09:48Z</time>
      </trkpt>
      <trkpt lat="46.77508" lon="-0.84571">
        <ele>166</ele>
        <time>2011-11-10T21:09:51Z</time>
      </trkpt>
      <trkpt lat="46.77505" lon="-0.84571">
        <ele>166</ele>
        <time>2011-11-10T21:09:51Z</time>
      </trkpt>
      <trkpt lat="46.77491" lon="-0.84617">
        <ele>166</ele>
        <time>2011-11-10T21:09:57Z</time>
      </trkpt>
      <trkpt lat="46.77474" lon="-0.84654">
        <ele>164</ele>
        <time>2011-11-10T21:10:01Z</time>
      </trkpt>
      <trkpt lat="46.77452" lon="-0.84693">
        <ele>161</ele>
        <time>2011-11-10T21:10:07Z</time>
      </trkpt>
      <trkpt lat="46.77408" lon="-0.8475">
        <ele>159</ele>
        <time>2011-11-10T21:10:16Z</time>
      </trkpt>
      <trkpt lat="46.774" lon="-0.84772">
        <ele>159</ele>
        <time>2011-11-10T21:10:19Z</time>
      </trkpt>
      <trkpt lat="46.77402" lon="-0.84792">
        <ele>155</ele>
        <time>2011-11-10T21:10:21Z</time>
      </trkpt>
      <trkpt lat="46.77398" lon="-0.84804">
        <ele>155</ele>
        <time>2011-11-10T21:10:23Z</time>
      </trkpt>
      <trkpt lat="46.77387" lon="-0.84812">
        <ele>155</ele>
        <time>2011-11-10T21:10:25Z</time>
      </trkpt>
      <trkpt lat="46.77376" lon="-0.84809">
        <ele>155</ele>
        <time>2011-11-10T21:10:27Z</time>
      </trkpt>
      <trkpt lat="46.77356" lon="-0.84823">
        <ele>151</ele>
        <time>2011-11-10T21:10:30Z</time>
      </trkpt>
      <trkpt lat="46.77229" lon="-0.85009">
        <ele>145</ele>
        <time>2011-11-10T21:10:59Z</time>
      </trkpt>
      <trkpt lat="46.77207" lon="-0.85054">
        <ele>139</ele>
        <time>2011-11-10T21:11:05Z</time>
      </trkpt>
      <trkpt lat="46.77192" lon="-0.85117">
        <ele>139</ele>
        <time>2011-11-10T21:11:12Z</time>
      </trkpt>
      <trkpt lat="46.77168" lon="-0.85173">
        <ele>138</ele>
        <time>2011-11-10T21:11:20Z</time>
      </trkpt>
      <trkpt lat="46.77141" lon="-0.85207">
        <ele>138</ele>
        <time>2011-11-10T21:11:25Z</time>
      </trkpt>
      <trkpt lat="46.77096" lon="-0.8525">
        <ele>137</ele>
        <time>2011-11-10T21:11:34Z</time>
      </trkpt>
      <trkpt lat="46.77067" lon="-0.85297">
        <ele>136</ele>
        <time>2011-11-10T21:11:41Z</time>
      </trkpt>
      <trkpt lat="46.77067" lon="-0.85297">
        <ele>136</ele>
        <time>2011-11-10T21:11:41Z</time>
      </trkpt>
      <trkpt lat="46.7704" lon="-0.85356">
        <ele>141</ele>
        <time>2011-11-10T21:11:49Z</time>
      </trkpt>
      <trkpt lat="46.77013" lon="-0.85386">
        <ele>140</ele>
        <time>2011-11-10T21:11:54Z</time>
      </trkpt>
      <trkpt lat="46.76696" lon="-0.85603">
        <ele>144</ele>
        <time>2011-11-10T21:12:50Z</time>
      </trkpt>
      <trkpt lat="46.76653" lon="-0.85644">
        <ele>142</ele>
        <time>2011-11-10T21:12:58Z</time>
      </trkpt>
      <trkpt lat="46.76409" lon="-0.85907">
        <ele>134</ele>
        <time>2011-11-10T21:13:47Z</time>
      </trkpt>
      <trkpt lat="46.76321" lon="-0.86004">
        <ele>136</ele>
        <time>2011-11-10T21:14:05Z</time>
      </trkpt>
      <trkpt lat="46.76282" lon="-0.86055">
        <ele>135</ele>
        <time>2011-11-10T21:14:13Z</time>
      </trkpt>
      <trkpt lat="46.76112" lon="-0.86317">
        <ele>134</ele>
        <time>2011-11-10T21:14:53Z</time>
      </trkpt>
      <trkpt lat="46.75904" lon="-0.86569">
        <ele>132</ele>
        <time>2011-11-10T21:15:36Z</time>
      </trkpt>
      <trkpt lat="46.75904" lon="-0.86569">
        <ele>132</ele>
        <time>2011-11-10T21:15:36Z</time>
      </trkpt>
      <trkpt lat="46.75707" lon="-0.86821">
        <ele>125</ele>
        <time>2011-11-10T21:16:18Z</time>
      </trkpt>
      <trkpt lat="46.75731" lon="-0.86863">
        <ele>128</ele>
        <time>2011-11-10T21:16:24Z</time>
      </trkpt>
      <trkpt lat="46.75731" lon="-0.86863">
        <ele>128</ele>
        <time>2011-11-10T21:16:24Z</time>
      </trkpt>
      <trkpt lat="46.75972" lon="-0.87285">
        <ele>115</ele>
        <time>2011-11-10T21:17:24Z</time>
      </trkpt>
      <trkpt lat="46.76078" lon="-0.8748">
        <ele>117</ele>
        <time>2011-11-10T21:17:51Z</time>
      </trkpt>
      <trkpt lat="46.76094" lon="-0.87507">
        <ele>117</ele>
        <time>2011-11-10T21:17:55Z</time>
      </trkpt>
      <trkpt lat="46.76152" lon="-0.87579">
        <ele>107</ele>
        <time>2011-11-10T21:18:07Z</time>
      </trkpt>
      <trkpt lat="46.76168" lon="-0.8762">
        <ele>107</ele>
        <time>2011-11-10T21:18:13Z</time>
      </trkpt>
      <trkpt lat="46.76181" lon="-0.87673">
        <ele>105</ele>
        <time>2011-11-10T21:18:19Z</time>
      </trkpt>
      <trkpt lat="46.76192" lon="-0.87702">
        <ele>105</ele>
        <time>2011-11-10T21:18:22Z</time>
      </trkpt>
      <trkpt lat="46.76213" lon="-0.87736">
        <ele>109</ele>
        <time>2011-11-10T21:18:27Z</time>
      </trkpt>
      <trkpt lat="46.76273" lon="-0.87806">
        <ele>108</ele>
        <time>2011-11-10T21:18:40Z</time>
      </trkpt>
      <trkpt lat="46.76301" lon="-0.87855">
        <ele>111</ele>
        <time>2011-11-10T21:18:47Z</time>
      </trkpt>
      <trkpt lat="46.76363" lon="-0.88003">
        <ele>110</ele>
        <time>2011-11-10T21:19:06Z</time>
      </trkpt>
      <trkpt lat="46.76378" lon="-0.88031">
        <ele>114</ele>
        <time>2011-11-10T21:19:10Z</time>
      </trkpt>
      <trkpt lat="46.76411" lon="-0.88068">
        <ele>116</ele>
        <time>2011-11-10T21:19:16Z</time>
      </trkpt>
      <trkpt lat="46.76498" lon="-0.8814">
        <ele>124</ele>
        <time>2011-11-10T21:19:32Z</time>
      </trkpt>
      <trkpt lat="46.7657" lon="-0.88208">
        <ele>124</ele>
        <time>2011-11-10T21:19:46Z</time>
      </trkpt>
      <trkpt lat="46.76607" lon="-0.88263">
        <ele>127</ele>
        <time>2011-11-10T21:19:55Z</time>
      </trkpt>
      <trkpt lat="46.76747" lon="-0.88518">
        <ele>131</ele>
        <time>2011-11-10T21:20:30Z</time>
      </trkpt>
      <trkpt lat="46.76878" lon="-0.8872">
        <ele>125</ele>
        <time>2011-11-10T21:21:01Z</time>
      </trkpt>
      <trkpt lat="46.76999" lon="-0.88854">
        <ele>125</ele>
        <time>2011-11-10T21:21:25Z</time>
      </trkpt>
      <trkpt lat="46.77072" lon="-0.88911">
        <ele>126</ele>
        <time>2011-11-10T21:21:38Z</time>
      </trkpt>
      <trkpt lat="46.77089" lon="-0.88929">
        <ele>126</ele>
        <time>2011-11-10T21:21:42Z</time>
      </trkpt>
      <trkpt lat="46.77177" lon="-0.89065">
        <ele>126</ele>
        <time>2011-11-10T21:22:02Z</time>
      </trkpt>
      <trkpt lat="46.77193" lon="-0.89085">
        <ele>126</ele>
        <time>2011-11-10T21:22:06Z</time>
      </trkpt>
      <trkpt lat="46.7724" lon="-0.89123">
        <ele>128</ele>
        <time>2011-11-10T21:22:14Z</time>
      </trkpt>
      <trkpt lat="46.7724" lon="-0.89123">
        <ele>128</ele>
        <time>2011-11-10T21:22:14Z</time>
      </trkpt>
      <trkpt lat="46.77299" lon="-0.89163">
        <ele>128</ele>
        <time>2011-11-10T21:22:25Z</time>
      </trkpt>
      <trkpt lat="46.77313" lon="-0.8918">
        <ele>128</ele>
        <time>2011-11-10T21:22:28Z</time>
      </trkpt>
      <trkpt lat="46.77339" lon="-0.89228">
        <ele>125</ele>
        <time>2011-11-10T21:22:34Z</time>
      </trkpt>
      <trkpt lat="46.77384" lon="-0.89331">
        <ele>124</ele>
        <time>2011-11-10T21:22:48Z</time>
      </trkpt>
      <trkpt lat="46.77411" lon="-0.89378">
        <ele>122</ele>
        <time>2011-11-10T21:22:54Z</time>
      </trkpt>
      <trkpt lat="46.77444" lon="-0.89411">
        <ele>122</ele>
        <time>2011-11-10T21:23:01Z</time>
      </trkpt>
      <trkpt lat="46.77534" lon="-0.8948">
        <ele>117</ele>
        <time>2011-11-10T21:23:17Z</time>
      </trkpt>
      <trkpt lat="46.77567" lon="-0.89511">
        <ele>111</ele>
        <time>2011-11-10T21:23:23Z</time>
      </trkpt>
      <trkpt lat="46.7759" lon="-0.89526">
        <ele>111</ele>
        <time>2011-11-10T21:23:27Z</time>
      </trkpt>
      <trkpt lat="46.77615" lon="-0.89531">
        <ele>111</ele>
        <time>2011-11-10T21:23:31Z</time>
      </trkpt>
      <trkpt lat="46.77622" lon="-0.89552">
        <ele>109</ele>
        <time>2011-11-10T21:23:34Z</time>
      </trkpt>
      <trkpt lat="46.77658" lon="-0.89621">
        <ele>114</ele>
        <time>2011-11-10T21:23:44Z</time>
      </trkpt>
      <trkpt lat="46.77683" lon="-0.89696">
        <ele>114</ele>
        <time>2011-11-10T21:23:53Z</time>
      </trkpt>
      <trkpt lat="46.77703" lon="-0.89733">
        <ele>116</ele>
        <time>2011-11-10T21:23:58Z</time>
      </trkpt>
      <trkpt lat="46.77716" lon="-0.89749">
        <ele>118</ele>
        <time>2011-11-10T21:24:01Z</time>
      </trkpt>
      <trkpt lat="46.77974" lon="-0.89992">
        <ele>129</ele>
        <time>2011-11-10T21:24:50Z</time>
      </trkpt>
      <trkpt lat="46.78081" lon="-0.90111">
        <ele>131</ele>
        <time>2011-11-10T21:25:11Z</time>
      </trkpt>
      <trkpt lat="46.78125" lon="-0.90144">
        <ele>130</ele>
        <time>2011-11-10T21:25:19Z</time>
      </trkpt>
      <trkpt lat="46.78205" lon="-0.90191">
        <ele>130</ele>
        <time>2011-11-10T21:25:33Z</time>
      </trkpt>
      <trkpt lat="46.78243" lon="-0.90233">
        <ele>129</ele>
        <time>2011-11-10T21:25:41Z</time>
      </trkpt>
      <trkpt lat="46.78326" lon="-0.9035">
        <ele>133</ele>
        <time>2011-11-10T21:25:59Z</time>
      </trkpt>
      <trkpt lat="46.78354" lon="-0.90414">
        <ele>131</ele>
        <time>2011-11-10T21:26:07Z</time>
      </trkpt>
      <trkpt lat="46.78411" lon="-0.90598">
        <ele>132</ele>
        <time>2011-11-10T21:26:30Z</time>
      </trkpt>
      <trkpt lat="46.78515" lon="-0.90846">
        <ele>121</ele>
        <time>2011-11-10T21:27:01Z</time>
      </trkpt>
      <trkpt lat="46.78549" lon="-0.90968">
        <ele>112</ele>
        <time>2011-11-10T21:27:16Z</time>
      </trkpt>
      <trkpt lat="46.78563" lon="-0.91001">
        <ele>112</ele>
        <time>2011-11-10T21:27:20Z</time>
      </trkpt>
      <trkpt lat="46.78641" lon="-0.91127">
        <ele>100</ele>
        <time>2011-11-10T21:27:39Z</time>
      </trkpt>
      <trkpt lat="46.78763" lon="-0.914">
        <ele>93</ele>
        <time>2011-11-10T21:28:15Z</time>
      </trkpt>
      <trkpt lat="46.78952" lon="-0.91734">
        <ele>100</ele>
        <time>2011-11-10T21:29:02Z</time>
      </trkpt>
      <trkpt lat="46.78978" lon="-0.91784">
        <ele>108</ele>
        <time>2011-11-10T21:29:09Z</time>
      </trkpt>
      <trkpt lat="46.79032" lon="-0.91908">
        <ele>102</ele>
        <time>2011-11-10T21:29:25Z</time>
      </trkpt>
      <trkpt lat="46.79061" lon="-0.91963">
        <ele>106</ele>
        <time>2011-11-10T21:29:33Z</time>
      </trkpt>
      <trkpt lat="46.79108" lon="-0.92041">
        <ele>106</ele>
        <time>2011-11-10T21:29:44Z</time>
      </trkpt>
      <trkpt lat="46.79226" lon="-0.92205">
        <ele>109</ele>
        <time>2011-11-10T21:30:10Z</time>
      </trkpt>
      <trkpt lat="46.79269" lon="-0.92281">
        <ele>111</ele>
        <time>2011-11-10T21:30:21Z</time>
      </trkpt>
      <trkpt lat="46.79309" lon="-0.9237">
        <ele>115</ele>
        <time>2011-11-10T21:30:33Z</time>
      </trkpt>
      <trkpt lat="46.7932" lon="-0.92382">
        <ele>120</ele>
        <time>2011-11-10T21:30:35Z</time>
      </trkpt>
      <trkpt lat="46.79412" lon="-0.92543">
        <ele>129</ele>
        <time>2011-11-10T21:30:58Z</time>
      </trkpt>
      <trkpt lat="46.79412" lon="-0.92543">
        <ele>129</ele>
        <time>2011-11-10T21:30:58Z</time>
      </trkpt>
      <trkpt lat="46.79436" lon="-0.92578">
        <ele>129</ele>
        <time>2011-11-10T21:31:03Z</time>
      </trkpt>
      <trkpt lat="46.7951" lon="-0.92618">
        <ele>132</ele>
        <time>2011-11-10T21:31:16Z</time>
      </trkpt>
      <trkpt lat="46.79571" lon="-0.92643">
        <ele>137</ele>
        <time>2011-11-10T21:31:26Z</time>
      </trkpt>
      <trkpt lat="46.79595" lon="-0.92646">
        <ele>137</ele>
        <time>2011-11-10T21:31:30Z</time>
      </trkpt>
      <trkpt lat="46.79668" lon="-0.92636">
        <ele>138</ele>
        <time>2011-11-10T21:31:42Z</time>
      </trkpt>
      <trkpt lat="46.79717" lon="-0.9265">
        <ele>140</ele>
        <time>2011-11-10T21:31:50Z</time>
      </trkpt>
      <trkpt lat="46.79767" lon="-0.92655">
        <ele>140</ele>
        <time>2011-11-10T21:31:58Z</time>
      </trkpt>
      <trkpt lat="46.80067" lon="-0.92798">
        <ele>139</ele>
        <time>2011-11-10T21:32:48Z</time>
      </trkpt>
      <trkpt lat="46.80182" lon="-0.92911">
        <ele>138</ele>
        <time>2011-11-10T21:33:10Z</time>
      </trkpt>
      <trkpt lat="46.8031" lon="-0.93082">
        <ele>136</ele>
        <time>2011-11-10T21:33:38Z</time>
      </trkpt>
      <trkpt lat="46.80334" lon="-0.93108">
        <ele>136</ele>
        <time>2011-11-10T21:33:43Z</time>
      </trkpt>
      <trkpt lat="46.80452" lon="-0.93228">
        <ele>137</ele>
        <time>2011-11-10T21:34:06Z</time>
      </trkpt>
      <trkpt lat="46.80485" lon="-0.93243">
        <ele>130</ele>
        <time>2011-11-10T21:34:11Z</time>
      </trkpt>
      <trkpt lat="46.80562" lon="-0.93251">
        <ele>125</ele>
        <time>2011-11-10T21:34:24Z</time>
      </trkpt>
      <trkpt lat="46.80594" lon="-0.93247">
        <ele>125</ele>
        <time>2011-11-10T21:34:29Z</time>
      </trkpt>
      <trkpt lat="46.80692" lon="-0.932">
        <ele>119</ele>
        <time>2011-11-10T21:34:45Z</time>
      </trkpt>
      <trkpt lat="46.80734" lon="-0.93187">
        <ele>118</ele>
        <time>2011-11-10T21:34:52Z</time>
      </trkpt>
      <trkpt lat="46.80758" lon="-0.93193">
        <ele>118</ele>
        <time>2011-11-10T21:34:56Z</time>
      </trkpt>
      <trkpt lat="46.80889" lon="-0.9326">
        <ele>125</ele>
        <time>2011-11-10T21:35:18Z</time>
      </trkpt>
      <trkpt lat="46.8091" lon="-0.93267">
        <ele>125</ele>
        <time>2011-11-10T21:35:22Z</time>
      </trkpt>
      <trkpt lat="46.80948" lon="-0.9327">
        <ele>125</ele>
        <time>2011-11-10T21:35:28Z</time>
      </trkpt>
      <trkpt lat="46.81187" lon="-0.93216">
        <ele>134</ele>
        <time>2011-11-10T21:36:07Z</time>
      </trkpt>
      <trkpt lat="46.81446" lon="-0.93203">
        <ele>139</ele>
        <time>2011-11-10T21:36:48Z</time>
      </trkpt>
      <trkpt lat="46.81477" lon="-0.93192">
        <ele>139</ele>
        <time>2011-11-10T21:36:53Z</time>
      </trkpt>
      <trkpt lat="46.81656" lon="-0.93072">
        <ele>140</ele>
        <time>2011-11-10T21:37:25Z</time>
      </trkpt>
      <trkpt lat="46.81735" lon="-0.93048">
        <ele>141</ele>
        <time>2011-11-10T21:37:38Z</time>
      </trkpt>
      <trkpt lat="46.81795" lon="-0.93004">
        <ele>141</ele>
        <time>2011-11-10T21:37:49Z</time>
      </trkpt>
      <trkpt lat="46.81843" lon="-0.92981">
        <ele>141</ele>
        <time>2011-11-10T21:37:57Z</time>
      </trkpt>
      <trkpt lat="46.81843" lon="-0.92981">
        <ele>141</ele>
        <time>2011-11-10T21:37:57Z</time>
      </trkpt>
      <trkpt lat="46.81924" lon="-0.92964">
        <ele>140</ele>
        <time>2011-11-10T21:38:10Z</time>
      </trkpt>
      <trkpt lat="46.81951" lon="-0.92964">
        <ele>140</ele>
        <time>2011-11-10T21:38:14Z</time>
      </trkpt>
      <trkpt lat="46.81989" lon="-0.92975">
        <ele>140</ele>
        <time>2011-11-10T21:38:20Z</time>
      </trkpt>
      <trkpt lat="46.82019" lon="-0.92998">
        <ele>140</ele>
        <time>2011-11-10T21:38:26Z</time>
      </trkpt>
      <trkpt lat="46.82124" lon="-0.93106">
        <ele>138</ele>
        <time>2011-11-10T21:38:46Z</time>
      </trkpt>
      <trkpt lat="46.82159" lon="-0.93126">
        <ele>129</ele>
        <time>2011-11-10T21:38:52Z</time>
      </trkpt>
      <trkpt lat="46.82229" lon="-0.93144">
        <ele>126</ele>
        <time>2011-11-10T21:39:04Z</time>
      </trkpt>
      <trkpt lat="46.82264" lon="-0.93148">
        <ele>126</ele>
        <time>2011-11-10T21:39:09Z</time>
      </trkpt>
      <trkpt lat="46.82314" lon="-0.93143">
        <ele>124</ele>
        <time>2011-11-10T21:39:17Z</time>
      </trkpt>
      <trkpt lat="46.82394" lon="-0.93115">
        <ele>128</ele>
        <time>2011-11-10T21:39:30Z</time>
      </trkpt>
      <trkpt lat="46.82432" lon="-0.93113">
        <ele>128</ele>
        <time>2011-11-10T21:39:37Z</time>
      </trkpt>
      <trkpt lat="46.82661" lon="-0.93134">
        <ele>137</ele>
        <time>2011-11-10T21:40:13Z</time>
      </trkpt>
      <trkpt lat="46.82748" lon="-0.93161">
        <ele>134</ele>
        <time>2011-11-10T21:40:28Z</time>
      </trkpt>
      <trkpt lat="46.82752" lon="-0.93272">
        <ele>133</ele>
        <time>2011-11-10T21:40:40Z</time>
      </trkpt>
      <trkpt lat="46.82752" lon="-0.93272">
        <ele>133</ele>
        <time>2011-11-10T21:40:40Z</time>
      </trkpt>
      <trkpt lat="46.8276" lon="-0.93594">
        <ele>126</ele>
        <time>2011-11-10T21:41:15Z</time>
      </trkpt>
      <trkpt lat="46.82781" lon="-0.9414">
        <ele>128</ele>
        <time>2011-11-10T21:42:15Z</time>
      </trkpt>
      <trkpt lat="46.82785" lon="-0.94184">
        <ele>128</ele>
        <time>2011-11-10T21:42:20Z</time>
      </trkpt>
      <trkpt lat="46.82795" lon="-0.94219">
        <ele>129</ele>
        <time>2011-11-10T21:42:24Z</time>
      </trkpt>
      <trkpt lat="46.82809" lon="-0.94249">
        <ele>129</ele>
        <time>2011-11-10T21:42:28Z</time>
      </trkpt>
      <trkpt lat="46.8284" lon="-0.94294">
        <ele>131</ele>
        <time>2011-11-10T21:42:35Z</time>
      </trkpt>
      <trkpt lat="46.82915" lon="-0.94374">
        <ele>133</ele>
        <time>2011-11-10T21:42:50Z</time>
      </trkpt>
      <trkpt lat="46.82934" lon="-0.94424">
        <ele>132</ele>
        <time>2011-11-10T21:42:56Z</time>
      </trkpt>
      <trkpt lat="46.82936" lon="-0.94483">
        <ele>132</ele>
        <time>2011-11-10T21:43:03Z</time>
      </trkpt>
      <trkpt lat="46.82911" lon="-0.94749">
        <ele>132</ele>
        <time>2011-11-10T21:43:32Z</time>
      </trkpt>
      <trkpt lat="46.82902" lon="-0.94805">
        <ele>131</ele>
        <time>2011-11-10T21:43:38Z</time>
      </trkpt>
      <trkpt lat="46.82883" lon="-0.94868">
        <ele>131</ele>
        <time>2011-11-10T21:43:46Z</time>
      </trkpt>
      <trkpt lat="46.8283" lon="-0.94993">
        <ele>129</ele>
        <time>2011-11-10T21:44:02Z</time>
      </trkpt>
      <trkpt lat="46.82775" lon="-0.95161">
        <ele>129</ele>
        <time>2011-11-10T21:44:22Z</time>
      </trkpt>
      <trkpt lat="46.82762" lon="-0.95189">
        <ele>129</ele>
        <time>2011-11-10T21:44:26Z</time>
      </trkpt>
      <trkpt lat="46.82707" lon="-0.95281">
        <ele>127</ele>
        <time>2011-11-10T21:44:39Z</time>
      </trkpt>
      <trkpt lat="46.8266" lon="-0.9543">
        <ele>128</ele>
        <time>2011-11-10T21:44:57Z</time>
      </trkpt>
      <trkpt lat="46.82641" lon="-0.95462">
        <ele>129</ele>
        <time>2011-11-10T21:45:02Z</time>
      </trkpt>
      <trkpt lat="46.82547" lon="-0.95584">
        <ele>126</ele>
        <time>2011-11-10T21:45:22Z</time>
      </trkpt>
      <trkpt lat="46.82528" lon="-0.95617">
        <ele>124</ele>
        <time>2011-11-10T21:45:27Z</time>
      </trkpt>
      <trkpt lat="46.82522" lon="-0.95642">
        <ele>124</ele>
        <time>2011-11-10T21:45:30Z</time>
      </trkpt>
      <trkpt lat="46.82516" lon="-0.95714">
        <ele>124</ele>
        <time>2011-11-10T21:45:38Z</time>
      </trkpt>
      <trkpt lat="46.82496" lon="-0.95885">
        <ele>124</ele>
        <time>2011-11-10T21:45:57Z</time>
      </trkpt>
      <trkpt lat="46.8246" lon="-0.9605">
        <ele>123</ele>
        <time>2011-11-10T21:46:16Z</time>
      </trkpt>
      <trkpt lat="46.82458" lon="-0.96073">
        <ele>122</ele>
        <time>2011-11-10T21:46:18Z</time>
      </trkpt>
      <trkpt lat="46.82466" lon="-0.96197">
        <ele>123</ele>
        <time>2011-11-10T21:46:32Z</time>
      </trkpt>
      <trkpt lat="46.82436" lon="-0.96376">
        <ele>125</ele>
        <time>2011-11-10T21:46:52Z</time>
      </trkpt>
      <trkpt lat="46.82423" lon="-0.96516">
        <ele>126</ele>
        <time>2011-11-10T21:47:08Z</time>
      </trkpt>
      <trkpt lat="46.82403" lon="-0.96669">
        <ele>127</ele>
        <time>2011-11-10T21:47:25Z</time>
      </trkpt>
      <trkpt lat="46.82405" lon="-0.96785">
        <ele>125</ele>
        <time>2011-11-10T21:47:37Z</time>
      </trkpt>
      <trkpt lat="46.824" lon="-0.96922">
        <ele>127</ele>
        <time>2011-11-10T21:47:52Z</time>
      </trkpt>
      <trkpt lat="46.82413" lon="-0.97083">
        <ele>129</ele>
        <time>2011-11-10T21:48:10Z</time>
      </trkpt>
      <trkpt lat="46.82424" lon="-0.97193">
        <ele>130</ele>
        <time>2011-11-10T21:48:22Z</time>
      </trkpt>
      <trkpt lat="46.82484" lon="-0.97402">
        <ele>122</ele>
        <time>2011-11-10T21:48:47Z</time>
      </trkpt>
      <trkpt lat="46.82491" lon="-0.97437">
        <ele>122</ele>
        <time>2011-11-10T21:48:51Z</time>
      </trkpt>
      <trkpt lat="46.82492" lon="-0.97477">
        <ele>120</ele>
        <time>2011-11-10T21:48:56Z</time>
      </trkpt>
      <trkpt lat="46.82485" lon="-0.97521">
        <ele>120</ele>
        <time>2011-11-10T21:49:00Z</time>
      </trkpt>
      <trkpt lat="46.82457" lon="-0.97607">
        <ele>118</ele>
        <time>2011-11-10T21:49:11Z</time>
      </trkpt>
      <trkpt lat="46.82455" lon="-0.97633">
        <ele>116</ele>
        <time>2011-11-10T21:49:14Z</time>
      </trkpt>
      <trkpt lat="46.82479" lon="-0.97739">
        <ele>118</ele>
        <time>2011-11-10T21:49:26Z</time>
      </trkpt>
      <trkpt lat="46.82501" lon="-0.9788">
        <ele>118</ele>
        <time>2011-11-10T21:49:42Z</time>
      </trkpt>
      <trkpt lat="46.82509" lon="-0.97987">
        <ele>118</ele>
        <time>2011-11-10T21:49:54Z</time>
      </trkpt>
      <trkpt lat="46.82508" lon="-0.98002">
        <ele>118</ele>
        <time>2011-11-10T21:49:55Z</time>
      </trkpt>
      <trkpt lat="46.82508" lon="-0.98002">
        <ele>118</ele>
        <time>2011-11-10T21:49:55Z</time>
      </trkpt>
      <trkpt lat="46.82504" lon="-0.9805">
        <ele>116</ele>
        <time>2011-11-10T21:50:01Z</time>
      </trkpt>
      <trkpt lat="46.82482" lon="-0.98156">
        <ele>114</ele>
        <time>2011-11-10T21:50:13Z</time>
      </trkpt>
      <trkpt lat="46.82411" lon="-0.98344">
        <ele>111</ele>
        <time>2011-11-10T21:50:36Z</time>
      </trkpt>
      <trkpt lat="46.82406" lon="-0.98389">
        <ele>113</ele>
        <time>2011-11-10T21:50:41Z</time>
      </trkpt>
      <trkpt lat="46.82408" lon="-0.98412">
        <ele>113</ele>
        <time>2011-11-10T21:50:44Z</time>
      </trkpt>
      <trkpt lat="46.82395" lon="-0.98438">
        <ele>113</ele>
        <time>2011-11-10T21:50:47Z</time>
      </trkpt>
      <trkpt lat="46.8237" lon="-0.98512">
        <ele>112</ele>
        <time>2011-11-10T21:50:56Z</time>
      </trkpt>
      <trkpt lat="46.82352" lon="-0.9854">
        <ele>112</ele>
        <time>2011-11-10T21:51:01Z</time>
      </trkpt>
      <trkpt lat="46.82354" lon="-0.98565">
        <ele>113</ele>
        <time>2011-11-10T21:51:03Z</time>
      </trkpt>
      <trkpt lat="46.8238" lon="-0.98637">
        <ele>117</ele>
        <time>2011-11-10T21:51:12Z</time>
      </trkpt>
      <trkpt lat="46.82398" lon="-0.98713">
        <ele>117</ele>
        <time>2011-11-10T21:51:21Z</time>
      </trkpt>
      <trkpt lat="46.82394" lon="-0.98766">
        <ele>117</ele>
        <time>2011-11-10T21:51:27Z</time>
      </trkpt>
      <trkpt lat="46.82378" lon="-0.98828">
        <ele>118</ele>
        <time>2011-11-10T21:51:34Z</time>
      </trkpt>
      <trkpt lat="46.82378" lon="-0.98828">
        <ele>118</ele>
        <time>2011-11-10T21:51:34Z</time>
      </trkpt>
      <trkpt lat="46.82246" lon="-0.99219">
        <ele>118</ele>
        <time>2011-11-10T21:52:22Z</time>
      </trkpt>
      <trkpt lat="46.82233" lon="-0.99249">
        <ele>118</ele>
        <time>2011-11-10T21:52:26Z</time>
      </trkpt>
      <trkpt lat="46.82255" lon="-0.99367">
        <ele>116</ele>
        <time>2011-11-10T21:52:39Z</time>
      </trkpt>
      <trkpt lat="46.82256" lon="-0.99411">
        <ele>115</ele>
        <time>2011-11-10T21:52:44Z</time>
      </trkpt>
      <trkpt lat="46.82252" lon="-0.99446">
        <ele>115</ele>
        <time>2011-11-10T21:52:48Z</time>
      </trkpt>
      <trkpt lat="46.82306" lon="-0.9948">
        <ele>110</ele>
        <time>2011-11-10T21:52:57Z</time>
      </trkpt>
      <trkpt lat="46.8232" lon="-0.99501">
        <ele>110</ele>
        <time>2011-11-10T21:53:01Z</time>
      </trkpt>
      <trkpt lat="46.8235" lon="-0.99575">
        <ele>105</ele>
        <time>2011-11-10T21:53:10Z</time>
      </trkpt>
      <trkpt lat="46.82358" lon="-0.99588">
        <ele>105</ele>
        <time>2011-11-10T21:53:12Z</time>
      </trkpt>
      <trkpt lat="46.82385" lon="-0.99611">
        <ele>103</ele>
        <time>2011-11-10T21:53:17Z</time>
      </trkpt>
      <trkpt lat="46.82403" lon="-0.99618">
        <ele>103</ele>
        <time>2011-11-10T21:53:20Z</time>
      </trkpt>
      <trkpt lat="46.82564" lon="-0.99643">
        <ele>92</ele>
        <time>2011-11-10T21:53:46Z</time>
      </trkpt>
      <trkpt lat="46.82589" lon="-0.99656">
        <ele>92</ele>
        <time>2011-11-10T21:53:50Z</time>
      </trkpt>
      <trkpt lat="46.82615" lon="-0.99681">
        <ele>92</ele>
        <time>2011-11-10T21:53:55Z</time>
      </trkpt>
      <trkpt lat="46.82645" lon="-0.99741">
        <ele>102</ele>
        <time>2011-11-10T21:54:03Z</time>
      </trkpt>
      <trkpt lat="46.82792" lon="-1.00183">
        <ele>112</ele>
        <time>2011-11-10T21:54:57Z</time>
      </trkpt>
      <trkpt lat="46.82822" lon="-1.00243">
        <ele>111</ele>
        <time>2011-11-10T21:55:05Z</time>
      </trkpt>
      <trkpt lat="46.82854" lon="-1.00286">
        <ele>111</ele>
        <time>2011-11-10T21:55:12Z</time>
      </trkpt>
      <trkpt lat="46.82882" lon="-1.00314">
        <ele>112</ele>
        <time>2011-11-10T21:55:18Z</time>
      </trkpt>
      <trkpt lat="46.82916" lon="-1.00334">
        <ele>112</ele>
        <time>2011-11-10T21:55:23Z</time>
      </trkpt>
      <trkpt lat="46.82968" lon="-1.0035">
        <ele>118</ele>
        <time>2011-11-10T21:55:32Z</time>
      </trkpt>
      <trkpt lat="46.84394" lon="-1.00461">
        <ele>111</ele>
        <time>2011-11-10T21:59:21Z</time>
      </trkpt>
      <trkpt lat="46.84394" lon="-1.00461">
        <ele>111</ele>
        <time>2011-11-10T21:59:21Z</time>
      </trkpt>
      <trkpt lat="46.84448" lon="-1.00466">
        <ele>111</ele>
        <time>2011-11-10T21:59:29Z</time>
      </trkpt>
      <trkpt lat="46.84472" lon="-1.00458">
        <ele>110</ele>
        <time>2011-11-10T21:59:33Z</time>
      </trkpt>
      <trkpt lat="46.84482" lon="-1.00447">
        <ele>110</ele>
        <time>2011-11-10T21:59:35Z</time>
      </trkpt>
      <trkpt lat="46.84491" lon="-1.00447">
        <ele>110</ele>
        <time>2011-11-10T21:59:37Z</time>
      </trkpt>
      <trkpt lat="46.84504" lon="-1.00462">
        <ele>111</ele>
        <time>2011-11-10T21:59:39Z</time>
      </trkpt>
      <trkpt lat="46.84526" lon="-1.00469">
        <ele>111</ele>
        <time>2011-11-10T21:59:43Z</time>
      </trkpt>
      <trkpt lat="46.84587" lon="-1.00465">
        <ele>114</ele>
        <time>2011-11-10T21:59:53Z</time>
      </trkpt>
      <trkpt lat="46.84828" lon="-1.00388">
        <ele>115</ele>
        <time>2011-11-10T22:00:32Z</time>
      </trkpt>
      <trkpt lat="46.84879" lon="-1.00378">
        <ele>114</ele>
        <time>2011-11-10T22:00:40Z</time>
      </trkpt>
      <trkpt lat="46.84939" lon="-1.00377">
        <ele>114</ele>
        <time>2011-11-10T22:00:50Z</time>
      </trkpt>
      <trkpt lat="46.84996" lon="-1.00386">
        <ele>112</ele>
        <time>2011-11-10T22:00:59Z</time>
      </trkpt>
      <trkpt lat="46.85058" lon="-1.00411">
        <ele>108</ele>
        <time>2011-11-10T22:01:10Z</time>
      </trkpt>
      <trkpt lat="46.85071" lon="-1.00412">
        <ele>108</ele>
        <time>2011-11-10T22:01:12Z</time>
      </trkpt>
      <trkpt lat="46.85078" lon="-1.00406">
        <ele>108</ele>
        <time>2011-11-10T22:01:13Z</time>
      </trkpt>
      <trkpt lat="46.85083" lon="-1.00411">
        <ele>108</ele>
        <time>2011-11-10T22:01:14Z</time>
      </trkpt>
      <trkpt lat="46.85083" lon="-1.00417">
        <ele>108</ele>
        <time>2011-11-10T22:01:15Z</time>
      </trkpt>
      <trkpt lat="46.85106" lon="-1.00434">
        <ele>108</ele>
        <time>2011-11-10T22:01:19Z</time>
      </trkpt>
      <trkpt lat="46.85111" lon="-1.00443">
        <ele>108</ele>
        <time>2011-11-10T22:01:20Z</time>
      </trkpt>
      <trkpt lat="46.85265" lon="-1.00555">
        <ele>110</ele>
        <time>2011-11-10T22:01:47Z</time>
      </trkpt>
      <trkpt lat="46.85289" lon="-1.0057">
        <ele>110</ele>
        <time>2011-11-10T22:01:52Z</time>
      </trkpt>
      <trkpt lat="46.85372" lon="-1.00599">
        <ele>109</ele>
        <time>2011-11-10T22:02:05Z</time>
      </trkpt>
      <trkpt lat="46.85483" lon="-1.00653">
        <ele>108</ele>
        <time>2011-11-10T22:02:24Z</time>
      </trkpt>
      <trkpt lat="46.85576" lon="-1.0072">
        <ele>110</ele>
        <time>2011-11-10T22:02:41Z</time>
      </trkpt>
      <trkpt lat="46.85688" lon="-1.00825">
        <ele>111</ele>
        <time>2011-11-10T22:03:02Z</time>
      </trkpt>
      <trkpt lat="46.8582" lon="-1.00904">
        <ele>112</ele>
        <time>2011-11-10T22:03:25Z</time>
      </trkpt>
      <trkpt lat="46.85838" lon="-1.00909">
        <ele>112</ele>
        <time>2011-11-10T22:03:28Z</time>
      </trkpt>
      <trkpt lat="46.85853" lon="-1.00904">
        <ele>112</ele>
        <time>2011-11-10T22:03:30Z</time>
      </trkpt>
      <trkpt lat="46.8586" lon="-1.0091">
        <ele>112</ele>
        <time>2011-11-10T22:03:31Z</time>
      </trkpt>
      <trkpt lat="46.85872" lon="-1.00935">
        <ele>112</ele>
        <time>2011-11-10T22:03:35Z</time>
      </trkpt>
      <trkpt lat="46.8589" lon="-1.00949">
        <ele>113</ele>
        <time>2011-11-10T22:03:38Z</time>
      </trkpt>
      <trkpt lat="46.85948" lon="-1.00974">
        <ele>112</ele>
        <time>2011-11-10T22:03:48Z</time>
      </trkpt>
      <trkpt lat="46.85951" lon="-1.00967">
        <ele>112</ele>
        <time>2011-11-10T22:03:49Z</time>
      </trkpt>
      <trkpt lat="46.85957" lon="-1.00966">
        <ele>112</ele>
        <time>2011-11-10T22:03:50Z</time>
      </trkpt>
      <trkpt lat="46.85958" lon="-1.0098">
        <ele>112</ele>
        <time>2011-11-10T22:03:51Z</time>
      </trkpt>
      <trkpt lat="46.86113" lon="-1.01074">
        <ele>118</ele>
        <time>2011-11-10T22:04:18Z</time>
      </trkpt>
      <trkpt lat="46.86156" lon="-1.01109">
        <ele>117</ele>
        <time>2011-11-10T22:04:26Z</time>
      </trkpt>
      <trkpt lat="46.86179" lon="-1.01134">
        <ele>117</ele>
        <time>2011-11-10T22:04:30Z</time>
      </trkpt>
      <trkpt lat="46.86188" lon="-1.01133">
        <ele>117</ele>
        <time>2011-11-10T22:04:32Z</time>
      </trkpt>
      <trkpt lat="46.86189" lon="-1.01142">
        <ele>117</ele>
        <time>2011-11-10T22:04:33Z</time>
      </trkpt>
      <trkpt lat="46.86199" lon="-1.01144">
        <ele>117</ele>
        <time>2011-11-10T22:04:35Z</time>
      </trkpt>
      <trkpt lat="46.86324" lon="-1.01235">
        <ele>118</ele>
        <time>2011-11-10T22:04:57Z</time>
      </trkpt>
      <trkpt lat="46.86325" lon="-1.01226">
        <ele>118</ele>
        <time>2011-11-10T22:04:58Z</time>
      </trkpt>
      <trkpt lat="46.86334" lon="-1.01218">
        <ele>118</ele>
        <time>2011-11-10T22:05:00Z</time>
      </trkpt>
      <trkpt lat="46.86344" lon="-1.01224">
        <ele>118</ele>
        <time>2011-11-10T22:05:01Z</time>
      </trkpt>
      <trkpt lat="46.86346" lon="-1.0123">
        <ele>118</ele>
        <time>2011-11-10T22:05:02Z</time>
      </trkpt>
      <trkpt lat="46.86359" lon="-1.01214">
        <ele>118</ele>
        <time>2011-11-10T22:05:05Z</time>
      </trkpt>
      <trkpt lat="46.8638" lon="-1.01046">
        <ele>116</ele>
        <time>2011-11-10T22:05:23Z</time>
      </trkpt>
      <trkpt lat="46.86389" lon="-1.01008">
        <ele>116</ele>
        <time>2011-11-10T22:05:28Z</time>
      </trkpt>
      <trkpt lat="46.86389" lon="-1.00997">
        <ele>116</ele>
        <time>2011-11-10T22:05:29Z</time>
      </trkpt>
      <trkpt lat="46.86396" lon="-1.00992">
        <ele>116</ele>
        <time>2011-11-10T22:05:30Z</time>
      </trkpt>
      <trkpt lat="46.86409" lon="-1.00953">
        <ele>117</ele>
        <time>2011-11-10T22:05:35Z</time>
      </trkpt>
      <trkpt lat="46.86436" lon="-1.00917">
        <ele>117</ele>
        <time>2011-11-10T22:05:41Z</time>
      </trkpt>
    </trkseg>
  </trk>
</gpx>